Wetterdaten: Dienstag, 12.09.2023
Datum Zeit Temp. Aussen Temp. o. S. Temp +5cm Feuchte Auss Luftdruck Regen Sonnenschein Regendauer Solar Windben Empfang
12.09.2023 00:00 21,6 C 20,6 C 16,7 C 84 % 1013,1 hPa 0,0 l/m 0 min 0 min 0 W/m 3,2 km/h (1 Bft) 97,92 %
12.09.2023 00:02 21,6 C 20,0 C 16,7 C 84 % 1013,1 hPa 0,0 l/m 0 min 0 min 0 W/m 6,4 km/h (2 Bft) 100,00 %
12.09.2023 00:04 21,5 C 20,0 C 16,7 C 84 % 1013,2 hPa 0,0 l/m 0 min 0 min 0 W/m 6,4 km/h (2 Bft) 98,00 %
12.09.2023 00:10 21,4 C 20,0 C 16,7 C 84 % 1013,4 hPa 0,0 l/m 0 min 0 min 0 W/m 9,7 km/h (2 Bft) 100,00 %
12.09.2023 00:12 21,3 C 20,0 C 16,7 C 84 % 1013,4 hPa 0,0 l/m 0 min 0 min 0 W/m 6,4 km/h (2 Bft) 100,00 %
12.09.2023 00:16 21,3 C 20,0 C 16,1 C 85 % 1013,4 hPa 0,0 l/m 0 min 0 min 0 W/m 9,7 km/h (2 Bft) 97,87 %
12.09.2023 00:18 21,2 C 19,4 C 16,1 C 85 % 1013,5 hPa 0,0 l/m 0 min 0 min 0 W/m 9,7 km/h (2 Bft) 97,87 %
12.09.2023 00:20 21,1 C 19,4 C 16,1 C 85 % 1013,4 hPa 0,0 l/m 0 min 0 min 0 W/m 3,2 km/h (1 Bft) 95,65 %
12.09.2023 00:22 21,1 C 19,4 C 16,1 C 86 % 1013,4 hPa 0,0 l/m 0 min 0 min 0 W/m 0,0 km/h (0 Bft) 97,87 %
12.09.2023 00:24 21,1 C 19,4 C 16,1 C 86 % 1013,4 hPa 0,0 l/m 0 min 0 min 0 W/m 6,4 km/h (2 Bft) 97,87 %
12.09.2023 00:26 21,1 C 19,4 C 16,1 C 86 % 1013,4 hPa 0,0 l/m 0 min 0 min 0 W/m 3,2 km/h (1 Bft) 91,49 %
12.09.2023 00:28 21,0 C 19,4 C 16,1 C 86 % 1013,4 hPa 0,0 l/m 0 min 0 min 0 W/m 0,0 km/h (0 Bft) 97,87 %
12.09.2023 00:30 20,9 C 19,4 C 16,1 C 86 % 1013,4 hPa 0,0 l/m 0 min 0 min 0 W/m 0,0 km/h (0 Bft) 97,87 %
12.09.2023 00:32 20,9 C 19,4 C 16,1 C 87 % 1013,4 hPa 0,0 l/m 0 min 0 min 0 W/m 3,2 km/h (1 Bft) 96,23 %
12.09.2023 00:34 20,8 C 19,4 C 16,1 C 87 % 1013,5 hPa 0,0 l/m 0 min 0 min 0 W/m 6,4 km/h (2 Bft) 97,87 %
12.09.2023 00:36 20,8 C 19,4 C 16,1 C 87 % 1013,5 hPa 0,0 l/m 0 min 0 min 0 W/m 6,4 km/h (2 Bft) 97,83 %
12.09.2023 00:38 20,8 C 19,4 C 16,1 C 87 % 1013,5 hPa 0,0 l/m 0 min 0 min 0 W/m 3,2 km/h (1 Bft) 97,87 %
12.09.2023 00:40 20,7 C 19,4 C 16,1 C 87 % 1013,4 hPa 0,0 l/m 0 min 0 min 0 W/m 3,2 km/h (1 Bft) 97,87 %
12.09.2023 00:42 20,7 C 19,4 C 16,1 C 87 % 1013,4 hPa 0,0 l/m 0 min 0 min 0 W/m 3,2 km/h (1 Bft) 95,74 %
12.09.2023 00:44 20,7 C 19,4 C 16,1 C 87 % 1013,4 hPa 0,0 l/m 0 min 0 min 0 W/m 6,4 km/h (2 Bft) 97,87 %
12.09.2023 00:46 20,6 C 19,4 C 15,6 C 88 % 1013,5 hPa 0,0 l/m 0 min 0 min 0 W/m 9,7 km/h (2 Bft) 95,74 %
12.09.2023 00:48 20,6 C 19,4 C 15,6 C 88 % 1013,5 hPa 0,0 l/m 0 min 0 min 0 W/m 9,7 km/h (2 Bft) 95,74 %
12.09.2023 00:50 20,6 C 18,9 C 15,6 C 88 % 1013,5 hPa 0,0 l/m 0 min 0 min 0 W/m 6,4 km/h (2 Bft) 95,74 %
12.09.2023 00:52 20,5 C 18,9 C 15,6 C 88 % 1013,5 hPa 0,0 l/m 0 min 0 min 0 W/m 3,2 km/h (1 Bft) 97,83 %
12.09.2023 00:54 20,5 C 18,9 C 15,6 C 88 % 1013,5 hPa 0,0 l/m 0 min 0 min 0 W/m 3,2 km/h (1 Bft) 97,87 %
12.09.2023 00:56 20,4 C 18,9 C 15,6 C 88 % 1013,5 hPa 0,0 l/m 0 min 0 min 0 W/m 6,4 km/h (2 Bft) 97,87 %
12.09.2023 00:58 20,4 C 18,9 C 15,6 C 88 % 1013,5 hPa 0,0 l/m 0 min 0 min 0 W/m 3,2 km/h (1 Bft) 96,00 %
12.09.2023 01:00 20,3 C 18,9 C 15,6 C 88 % 1013,6 hPa 0,0 l/m 0 min 0 min 0 W/m 9,7 km/h (2 Bft) 95,74 %
12.09.2023 01:02 20,3 C 18,9 C 15,6 C 88 % 1013,6 hPa 0,0 l/m 0 min 0 min 0 W/m 9,7 km/h (2 Bft) 97,87 %
12.09.2023 01:08 20,2 C 18,9 C 15,6 C 89 % 1013,7 hPa 0,0 l/m 0 min 0 min 0 W/m 6,4 km/h (2 Bft) 96,88 %
12.09.2023 01:10 20,2 C 18,9 C 15,6 C 89 % 1013,7 hPa 0,0 l/m 0 min 0 min 0 W/m 3,2 km/h (1 Bft) 95,74 %
12.09.2023 01:12 20,2 C 18,9 C 15,6 C 89 % 1013,7 hPa 0,0 l/m 0 min 0 min 0 W/m 3,2 km/h (1 Bft) 95,74 %
12.09.2023 01:14 20,1 C 18,9 C 15,6 C 89 % 1013,7 hPa 0,0 l/m 0 min 0 min 0 W/m 3,2 km/h (1 Bft) 95,74 %
12.09.2023 01:16 20,1 C 18,9 C 15,6 C 89 % 1013,7 hPa 0,0 l/m 0 min 0 min 0 W/m 6,4 km/h (2 Bft) 95,74 %
12.09.2023 01:18 20,1 C 18,9 C 15,6 C 89 % 1013,7 hPa 0,0 l/m 0 min 0 min 0 W/m 6,4 km/h (2 Bft) 93,48 %
12.09.2023 01:20 20,1 C 18,9 C 15,6 C 90 % 1013,7 hPa 0,0 l/m 0 min 0 min 0 W/m 6,4 km/h (2 Bft) 95,74 %
12.09.2023 01:22 20,1 C 18,9 C 15,6 C 90 % 1013,6 hPa 0,0 l/m 0 min 0 min 0 W/m 6,4 km/h (2 Bft) 91,49 %
12.09.2023 01:24 20,0 C 18,9 C 15,6 C 90 % 1013,6 hPa 0,0 l/m 0 min 0 min 0 W/m 3,2 km/h (1 Bft) 95,74 %
12.09.2023 01:26 20,0 C 18,9 C 15,6 C 90 % 1013,6 hPa 0,0 l/m 0 min 0 min 0 W/m 3,2 km/h (1 Bft) 95,74 %
12.09.2023 01:28 20,0 C 18,9 C 15,6 C 90 % 1013,5 hPa 0,0 l/m 0 min 0 min 0 W/m 0,0 km/h (0 Bft) 95,74 %
12.09.2023 01:30 19,9 C 18,9 C 15,6 C 90 % 1013,6 hPa 0,0 l/m 0 min 0 min 0 W/m 3,2 km/h (1 Bft) 97,87 %
12.09.2023 01:32 19,9 C 18,9 C 15,6 C 90 % 1013,5 hPa 0,0 l/m 0 min 0 min 0 W/m 0,0 km/h (0 Bft) 95,65 %
12.09.2023 01:34 19,9 C 18,9 C 15,6 C 90 % 1013,5 hPa 0,0 l/m 0 min 0 min 0 W/m 0,0 km/h (0 Bft) 95,74 %
12.09.2023 01:36 19,9 C 18,9 C 15,6 C 91 % 1013,5 hPa 0,0 l/m 0 min 0 min 0 W/m 0,0 km/h (0 Bft) 95,74 %
12.09.2023 01:38 19,9 C 18,9 C 15,6 C 91 % 1013,5 hPa 0,0 l/m 0 min 0 min 0 W/m 3,2 km/h (1 Bft) 95,74 %
12.09.2023 01:40 19,9 C 18,9 C 15,6 C 91 % 1013,6 hPa 0,0 l/m 0 min 0 min 0 W/m 3,2 km/h (1 Bft) 97,87 %
12.09.2023 01:42 19,9 C 18,9 C 15,6 C 91 % 1013,6 hPa 0,0 l/m 0 min 0 min 0 W/m 0,0 km/h (0 Bft) 97,87 %
12.09.2023 01:44 19,8 C 18,9 C 15,6 C 91 % 1013,6 hPa 0,0 l/m 0 min 0 min 0 W/m 0,0 km/h (0 Bft) 95,74 %
12.09.2023 01:46 19,8 C 18,9 C 15,6 C 91 % 1013,6 hPa 0,0 l/m 0 min 0 min 0 W/m 0,0 km/h (0 Bft) 95,74 %
12.09.2023 01:48 19,8 C 18,9 C 15,6 C 91 % 1013,6 hPa 0,0 l/m 0 min 0 min 0 W/m 6,4 km/h (2 Bft) 97,83 %
12.09.2023 01:50 19,8 C 18,9 C 15,6 C 91 % 1013,7 hPa 0,0 l/m 0 min 0 min 0 W/m 6,4 km/h (2 Bft) 97,87 %
12.09.2023 01:52 19,8 C 18,9 C 15,6 C 91 % 1013,8 hPa 0,0 l/m 0 min 0 min 0 W/m 6,4 km/h (2 Bft) 95,74 %
12.09.2023 01:54 19,8 C 18,9 C 15,6 C 91 % 1013,8 hPa 0,0 l/m 0 min 0 min 0 W/m 3,2 km/h (1 Bft) 100,00 %
12.09.2023 01:56 19,8 C 18,9 C 15,6 C 91 % 1013,8 hPa 0,0 l/m 0 min 0 min 0 W/m 3,2 km/h (1 Bft) 95,74 %
12.09.2023 01:58 19,8 C 18,9 C 15,6 C 91 % 1013,9 hPa 0,0 l/m 0 min 0 min 0 W/m 0,0 km/h (0 Bft) 100,00 %
12.09.2023 02:00 19,8 C 18,9 C 15,6 C 92 % 1014,0 hPa 0,0 l/m 0 min 0 min 0 W/m 3,2 km/h (1 Bft) 100,00 %
12.09.2023 02:02 19,8 C 18,9 C 15,6 C 92 % 1014,2 hPa 0,0 l/m 0 min 0 min 0 W/m 3,2 km/h (1 Bft) 97,87 %
12.09.2023 02:04 19,8 C 18,9 C 15,6 C 92 % 1014,3 hPa 0,0 l/m 0 min 0 min 0 W/m 6,4 km/h (2 Bft) 97,83 %
12.09.2023 02:06 19,8 C 18,9 C 15,6 C 92 % 1014,3 hPa 0,0 l/m 0 min 0 min 0 W/m 6,4 km/h (2 Bft) 98,36 %
12.09.2023 02:08 19,8 C 18,9 C 15,6 C 92 % 1014,3 hPa 0,0 l/m 0 min 0 min 0 W/m 6,4 km/h (2 Bft) 94,29 %
12.09.2023 02:10 19,8 C 18,9 C 15,6 C 92 % 1013,8 hPa 0,0 l/m 0 min 0 min 0 W/m 9,7 km/h (2 Bft) 97,87 %
12.09.2023 02:14 19,8 C 18,9 C 15,6 C 92 % 1012,7 hPa 0,2 l/m 0 min 0 min 0 W/m 9,7 km/h (2 Bft) 100,00 %
12.09.2023 02:16 19,8 C 18,9 C 14,4 C 92 % 1012,4 hPa 0,2 l/m 0 min 2 min 0 W/m 12,9 km/h (3 Bft) 97,14 %
12.09.2023 02:18 19,8 C 18,9 C 14,4 C 93 % 1012,6 hPa 0,0 l/m 0 min 2 min 0 W/m 9,7 km/h (2 Bft) 97,87 %
12.09.2023 02:20 19,8 C 18,9 C 14,4 C 93 % 1012,8 hPa 0,0 l/m 0 min 0 min 0 W/m 19,3 km/h (3 Bft) 97,87 %
12.09.2023 02:22 19,8 C 18,9 C 14,4 C 93 % 1012,9 hPa 0,0 l/m 0 min 0 min 0 W/m 3,2 km/h (1 Bft) 97,87 %
12.09.2023 02:24 19,7 C 18,9 C 14,4 C 93 % 1013,0 hPa 0,0 l/m 0 min 0 min 0 W/m 12,9 km/h (3 Bft) 97,87 %
12.09.2023 02:26 19,7 C 18,9 C 14,4 C 93 % 1013,2 hPa 0,0 l/m 0 min 0 min 0 W/m 6,4 km/h (2 Bft) 98,11 %
12.09.2023 02:28 19,7 C 18,9 C 14,4 C 93 % 1013,4 hPa 0,0 l/m 0 min 0 min 0 W/m 9,7 km/h (2 Bft) 98,00 %
12.09.2023 02:30 19,7 C 18,9 C 14,4 C 93 % 1013,4 hPa 0,0 l/m 0 min 0 min 0 W/m 3,2 km/h (1 Bft) 97,96 %
12.09.2023 02:32 19,7 C 18,9 C 14,4 C 94 % 1013,2 hPa 0,0 l/m 0 min 0 min 0 W/m 6,4 km/h (2 Bft) 97,87 %
12.09.2023 02:34 19,7 C 18,3 C 14,4 C 94 % 1013,1 hPa 0,0 l/m 0 min 0 min 0 W/m 9,7 km/h (2 Bft) 97,14 %
12.09.2023 02:36 19,7 C 18,3 C 14,4 C 94 % 1013,0 hPa 0,0 l/m 0 min 0 min 0 W/m 3,2 km/h (1 Bft) 100,00 %
12.09.2023 02:38 19,7 C 18,3 C 14,4 C 94 % 1013,1 hPa 0,0 l/m 0 min 0 min 0 W/m 9,7 km/h (2 Bft) 100,00 %
12.09.2023 02:40 19,7 C 18,3 C 14,4 C 94 % 1013,2 hPa 0,0 l/m 0 min 0 min 0 W/m 9,7 km/h (2 Bft) 100,00 %
12.09.2023 02:42 19,7 C 18,3 C 14,4 C 94 % 1013,1 hPa 0,0 l/m 0 min 0 min 0 W/m 3,2 km/h (1 Bft) 100,00 %
12.09.2023 02:44 19,7 C 18,3 C 14,4 C 94 % 1013,1 hPa 0,0 l/m 0 min 0 min 0 W/m 0,0 km/h (0 Bft) 100,00 %
12.09.2023 02:46 19,7 C 18,3 C 14,4 C 94 % 1013,1 hPa 0,0 l/m 0 min 0 min 0 W/m 3,2 km/h (1 Bft) 100,00 %
12.09.2023 02:48 19,7 C 18,9 C 14,4 C 94 % 1013,1 hPa 0,0 l/m 0 min 0 min 0 W/m 3,2 km/h (1 Bft) 100,00 %
12.09.2023 02:50 19,7 C 18,9 C 15,0 C 95 % 1013,0 hPa 0,0 l/m 0 min 0 min 0 W/m 3,2 km/h (1 Bft) 100,00 %
12.09.2023 02:52 19,7 C 18,3 C 14,4 C 95 % 1013,2 hPa 0,0 l/m 0 min 0 min 0 W/m 3,2 km/h (1 Bft) 100,00 %
12.09.2023 02:54 19,7 C 18,3 C 14,4 C 95 % 1013,2 hPa 0,0 l/m 0 min 0 min 0 W/m 3,2 km/h (1 Bft) 100,00 %
12.09.2023 02:56 19,7 C 18,3 C 14,4 C 95 % 1013,2 hPa 0,0 l/m 0 min 0 min 0 W/m 6,4 km/h (2 Bft) 100,00 %
12.09.2023 02:58 19,7 C 18,3 C 14,4 C 95 % 1013,3 hPa 0,0 l/m 0 min 0 min 0 W/m 3,2 km/h (1 Bft) 100,00 %
12.09.2023 03:00 19,6 C 18,3 C 14,4 C 95 % 1013,3 hPa 0,0 l/m 0 min 0 min 0 W/m 6,4 km/h (2 Bft) 100,00 %
12.09.2023 03:02 19,6 C 18,3 C 14,4 C 95 % 1013,2 hPa 0,0 l/m 0 min 0 min 0 W/m 3,2 km/h (1 Bft) 95,74 %
12.09.2023 03:04 19,6 C 18,3 C 14,4 C 95 % 1013,2 hPa 0,0 l/m 0 min 0 min 0 W/m 0,0 km/h (0 Bft) 100,00 %
12.09.2023 03:06 19,6 C 18,3 C 14,4 C 95 % 1013,2 hPa 0,0 l/m 0 min 0 min 0 W/m 3,2 km/h (1 Bft) 100,00 %
12.09.2023 03:08 19,6 C 18,3 C 14,4 C 95 % 1013,2 hPa 0,0 l/m 0 min 0 min 0 W/m 3,2 km/h (1 Bft) 100,00 %
12.09.2023 03:10 19,6 C 18,3 C 14,4 C 95 % 1013,2 hPa 0,0 l/m 0 min 0 min 0 W/m 0,0 km/h (0 Bft) 100,00 %
12.09.2023 03:12 19,6 C 18,3 C 14,4 C 95 % 1013,1 hPa 0,0 l/m 0 min 0 min 0 W/m 3,2 km/h (1 Bft) 100,00 %
12.09.2023 03:14 19,6 C 18,3 C 14,4 C 95 % 1013,2 hPa 0,0 l/m 0 min 0 min 0 W/m 3,2 km/h (1 Bft) 100,00 %
12.09.2023 03:16 19,6 C 18,3 C 14,4 C 95 % 1013,3 hPa 0,0 l/m 0 min 0 min 0 W/m 6,4 km/h (2 Bft) 98,18 %
12.09.2023 03:18 19,5 C 18,3 C 14,4 C 95 % 1013,4 hPa 0,0 l/m 0 min 0 min 0 W/m 3,2 km/h (1 Bft) 100,00 %
12.09.2023 03:20 19,5 C 18,3 C 14,4 C 95 % 1013,5 hPa 0,0 l/m 0 min 0 min 0 W/m 3,2 km/h (1 Bft) 100,00 %
12.09.2023 03:22 19,5 C 18,3 C 14,4 C 95 % 1013,4 hPa 0,0 l/m 0 min 0 min 0 W/m 3,2 km/h (1 Bft) 100,00 %
12.09.2023 03:24 19,5 C 18,3 C 14,4 C 95 % 1013,4 hPa 0,0 l/m 0 min 0 min 0 W/m 0,0 km/h (0 Bft) 100,00 %
12.09.2023 03:26 19,5 C 18,3 C 15,0 C 95 % 1013,3 hPa 0,0 l/m 0 min 0 min 0 W/m 3,2 km/h (1 Bft) 100,00 %
12.09.2023 03:28 19,5 C 18,3 C 14,4 C 96 % 1013,2 hPa 0,0 l/m 0 min 0 min 0 W/m 6,4 km/h (2 Bft) 100,00 %
12.09.2023 03:30 19,5 C 18,3 C 14,4 C 96 % 1013,1 hPa 0,0 l/m 0 min 0 min 0 W/m 6,4 km/h (2 Bft) 100,00 %
12.09.2023 03:32 19,4 C 18,3 C 14,4 C 96 % 1013,1 hPa 0,0 l/m 0 min 0 min 0 W/m 3,2 km/h (1 Bft) 100,00 %
12.09.2023 03:34 19,4 C 18,3 C 14,4 C 96 % 1013,1 hPa 0,0 l/m 0 min 0 min 0 W/m 3,2 km/h (1 Bft) 100,00 %
12.09.2023 03:36 19,4 C 18,3 C 14,4 C 96 % 1013,1 hPa 0,0 l/m 0 min 0 min 0 W/m 6,4 km/h (2 Bft) 97,87 %
12.09.2023 03:38 19,4 C 18,3 C 14,4 C 96 % 1013,1 hPa 0,0 l/m 0 min 0 min 0 W/m 3,2 km/h (1 Bft) 100,00 %
12.09.2023 03:40 19,3 C 18,3 C 14,4 C 96 % 1013,0 hPa 0,0 l/m 0 min 0 min 0 W/m 9,7 km/h (2 Bft) 95,74 %
12.09.2023 03:42 19,3 C 18,3 C 14,4 C 96 % 1012,9 hPa 0,0 l/m 0 min 0 min 0 W/m 3,2 km/h (1 Bft) 97,83 %
12.09.2023 03:44 19,3 C 18,3 C 14,4 C 96 % 1013,0 hPa 0,0 l/m 0 min 0 min 0 W/m 0,0 km/h (0 Bft) 95,74 %
12.09.2023 03:46 19,3 C 18,3 C 14,4 C 96 % 1013,0 hPa 0,0 l/m 0 min 0 min 0 W/m 0,0 km/h (0 Bft) 93,62 %
12.09.2023 03:48 19,3 C 18,3 C 14,4 C 96 % 1013,0 hPa 0,0 l/m 0 min 0 min 0 W/m 3,2 km/h (1 Bft) 97,87 %
12.09.2023 03:50 19,3 C 18,3 C 14,4 C 96 % 1012,9 hPa 0,0 l/m 0 min 0 min 0 W/m 3,2 km/h (1 Bft) 95,74 %
12.09.2023 03:52 19,3 C 18,3 C 14,4 C 96 % 1012,9 hPa 0,0 l/m 0 min 0 min 0 W/m 0,0 km/h (0 Bft) 93,62 %
12.09.2023 03:54 19,3 C 18,3 C 14,4 C 96 % 1013,0 hPa 0,0 l/m 0 min 0 min 0 W/m 0,0 km/h (0 Bft) 93,62 %
12.09.2023 03:56 19,3 C 18,3 C 14,4 C 96 % 1013,0 hPa 0,0 l/m 0 min 0 min 0 W/m 0,0 km/h (0 Bft) 91,30 %
12.09.2023 03:58 19,3 C 18,3 C 14,4 C 96 % 1013,1 hPa 0,0 l/m 0 min 0 min 0 W/m 3,2 km/h (1 Bft) 93,02 %
12.09.2023 04:00 19,3 C 18,3 C 14,4 C 96 % 1013,1 hPa 0,0 l/m 0 min 0 min 0 W/m 3,2 km/h (1 Bft) 92,86 %
12.09.2023 04:02 19,3 C 18,3 C 14,4 C 96 % 1013,1 hPa 0,0 l/m 0 min 0 min 0 W/m 0,0 km/h (0 Bft) 89,36 %
12.09.2023 04:04 19,3 C 18,3 C 15,0 C 96 % 1013,0 hPa 0,0 l/m 0 min 0 min 0 W/m 0,0 km/h (0 Bft) 93,18 %
12.09.2023 04:06 19,3 C 18,3 C 14,4 C 96 % 1013,1 hPa 0,0 l/m 0 min 0 min 0 W/m 3,2 km/h (1 Bft) 93,62 %
12.09.2023 04:08 19,3 C 18,3 C 14,4 C 96 % 1013,2 hPa 0,0 l/m 0 min 0 min 0 W/m 3,2 km/h (1 Bft) 95,74 %
12.09.2023 04:10 19,3 C 18,3 C 15,0 C 96 % 1013,3 hPa 0,0 l/m 0 min 0 min 0 W/m 3,2 km/h (1 Bft) 91,30 %
12.09.2023 04:12 19,3 C 18,3 C 15,0 C 96 % 1013,4 hPa 0,0 l/m 0 min 0 min 0 W/m 0,0 km/h (0 Bft) 93,62 %
12.09.2023 04:14 19,3 C 18,3 C 15,0 C 96 % 1013,3 hPa 0,0 l/m 0 min 0 min 0 W/m 0,0 km/h (0 Bft) 93,62 %
12.09.2023 04:16 19,3 C 18,3 C 15,0 C 96 % 1013,2 hPa 0,0 l/m 0 min 0 min 0 W/m 0,0 km/h (0 Bft) 93,62 %
12.09.2023 04:18 19,3 C 18,3 C 15,0 C 96 % 1013,3 hPa 0,0 l/m 0 min 0 min 0 W/m 0,0 km/h (0 Bft) 93,62 %
12.09.2023 04:20 19,3 C 18,3 C 15,0 C 96 % 1013,4 hPa 0,0 l/m 0 min 0 min 0 W/m 0,0 km/h (0 Bft) 91,49 %
12.09.2023 04:22 19,3 C 18,3 C 15,0 C 96 % 1013,4 hPa 0,0 l/m 0 min 0 min 0 W/m 0,0 km/h (0 Bft) 95,74 %
12.09.2023 04:24 19,3 C 18,3 C 15,0 C 96 % 1013,4 hPa 0,0 l/m 0 min 0 min 0 W/m 0,0 km/h (0 Bft) 95,65 %
12.09.2023 04:26 19,3 C 18,3 C 15,0 C 97 % 1013,3 hPa 0,0 l/m 0 min 0 min 0 W/m 0,0 km/h (0 Bft) 91,49 %
12.09.2023 04:28 19,3 C 18,3 C 15,0 C 97 % 1013,1 hPa 0,0 l/m 0 min 0 min 0 W/m 0,0 km/h (0 Bft) 95,74 %
12.09.2023 04:30 19,3 C 18,3 C 15,0 C 97 % 1013,0 hPa 0,0 l/m 0 min 0 min 0 W/m 0,0 km/h (0 Bft) 95,74 %
12.09.2023 04:32 19,3 C 18,3 C 15,0 C 97 % 1012,9 hPa 0,0 l/m 0 min 2 min 0 W/m 0,0 km/h (0 Bft) 97,87 %
12.09.2023 04:34 19,3 C 18,3 C 15,0 C 97 % 1012,8 hPa 0,0 l/m 0 min 2 min 0 W/m 0,0 km/h (0 Bft) 97,87 %
12.09.2023 04:36 19,3 C 18,3 C 15,0 C 96 % 1012,6 hPa 0,2 l/m 0 min 2 min 0 W/m 3,2 km/h (1 Bft) 100,00 %
12.09.2023 04:38 19,3 C 18,3 C 14,4 C 96 % 1012,7 hPa 1,4 l/m 0 min 2 min 0 W/m 6,4 km/h (2 Bft) 95,65 %
12.09.2023 04:40 19,3 C 18,3 C 14,4 C 97 % 1012,9 hPa 0,0 l/m 0 min 2 min 0 W/m 3,2 km/h (1 Bft) 100,00 %
12.09.2023 04:42 19,3 C 18,3 C 14,4 C 97 % 1012,9 hPa 0,0 l/m 0 min 2 min 0 W/m 3,2 km/h (1 Bft) 100,00 %
12.09.2023 04:44 19,3 C 17,8 C 14,4 C 97 % 1012,9 hPa 0,0 l/m 0 min 0 min 0 W/m 3,2 km/h (1 Bft) 100,00 %
12.09.2023 04:46 19,3 C 17,8 C 14,4 C 97 % 1012,9 hPa 0,0 l/m 0 min 0 min 0 W/m 3,2 km/h (1 Bft) 97,87 %
12.09.2023 04:48 19,3 C 17,8 C 14,4 C 97 % 1012,9 hPa 0,0 l/m 0 min 0 min 0 W/m 3,2 km/h (1 Bft) 100,00 %
12.09.2023 04:50 19,3 C 17,8 C 14,4 C 97 % 1012,9 hPa 0,0 l/m 0 min 0 min 0 W/m 0,0 km/h (0 Bft) 97,87 %
12.09.2023 04:52 19,3 C 17,8 C 14,4 C 97 % 1012,9 hPa 0,0 l/m 0 min 0 min 0 W/m 0,0 km/h (0 Bft) 100,00 %
12.09.2023 04:54 19,3 C 17,8 C 14,4 C 97 % 1013,0 hPa 0,0 l/m 0 min 0 min 0 W/m 0,0 km/h (0 Bft) 95,74 %
12.09.2023 04:56 19,3 C 17,8 C 14,4 C 97 % 1012,9 hPa 0,0 l/m 0 min 0 min 0 W/m 0,0 km/h (0 Bft) 100,00 %
12.09.2023 04:58 19,3 C 17,8 C 14,4 C 97 % 1012,9 hPa 0,0 l/m 0 min 0 min 0 W/m 0,0 km/h (0 Bft) 100,00 %
12.09.2023 05:00 19,2 C 17,8 C 14,4 C 97 % 1012,9 hPa 0,0 l/m 0 min 0 min 0 W/m 0,0 km/h (0 Bft) 100,00 %
12.09.2023 05:02 19,2 C 17,8 C 14,4 C 97 % 1012,9 hPa 0,0 l/m 0 min 0 min 0 W/m 0,0 km/h (0 Bft) 100,00 %
12.09.2023 05:04 19,2 C 17,8 C 14,4 C 97 % 1012,9 hPa 0,0 l/m 0 min 0 min 0 W/m 3,2 km/h (1 Bft) 100,00 %
12.09.2023 05:06 19,2 C 17,8 C 14,4 C 97 % 1012,9 hPa 0,0 l/m 0 min 0 min 0 W/m 3,2 km/h (1 Bft) 100,00 %
12.09.2023 05:08 19,2 C 17,8 C 14,4 C 97 % 1012,9 hPa 0,0 l/m 0 min 0 min 0 W/m 0,0 km/h (0 Bft) 97,87 %
12.09.2023 05:10 19,2 C 17,8 C 14,4 C 97 % 1012,9 hPa 0,0 l/m 0 min 0 min 0 W/m 3,2 km/h (1 Bft) 100,00 %
12.09.2023 05:12 19,2 C 17,8 C 14,4 C 97 % 1012,8 hPa 0,0 l/m 0 min 0 min 0 W/m 3,2 km/h (1 Bft) 100,00 %
12.09.2023 05:14 19,2 C 17,8 C 14,4 C 97 % 1012,8 hPa 0,0 l/m 0 min 0 min 0 W/m 3,2 km/h (1 Bft) 97,87 %
12.09.2023 05:16 19,1 C 17,8 C 14,4 C 97 % 1012,8 hPa 0,0 l/m 0 min 0 min 0 W/m 3,2 km/h (1 Bft) 97,87 %
12.09.2023 05:18 19,1 C 17,8 C 14,4 C 97 % 1012,8 hPa 0,0 l/m 0 min 0 min 0 W/m 3,2 km/h (1 Bft) 100,00 %
12.09.2023 05:20 19,1 C 17,8 C 14,4 C 97 % 1012,7 hPa 0,0 l/m 0 min 0 min 0 W/m 0,0 km/h (0 Bft) 100,00 %
12.09.2023 05:22 19,1 C 17,8 C 14,4 C 97 % 1012,8 hPa 0,0 l/m 0 min 0 min 0 W/m 0,0 km/h (0 Bft) 100,00 %
12.09.2023 05:24 19,1 C 17,8 C 14,4 C 97 % 1012,7 hPa 0,0 l/m 0 min 0 min 0 W/m 0,0 km/h (0 Bft) 100,00 %
12.09.2023 05:26 19,1 C 17,8 C 14,4 C 97 % 1012,7 hPa 0,0 l/m 0 min 0 min 0 W/m 0,0 km/h (0 Bft) 100,00 %
12.09.2023 05:28 19,1 C 17,8 C 14,4 C 97 % 1012,6 hPa 0,0 l/m 0 min 0 min 0 W/m 0,0 km/h (0 Bft) 100,00 %
12.09.2023 05:30 19,1 C 17,8 C 14,4 C 97 % 1012,6 hPa 0,0 l/m 0 min 0 min 0 W/m 0,0 km/h (0 Bft) 100,00 %
12.09.2023 05:32 19,1 C 17,8 C 14,4 C 97 % 1012,5 hPa 0,0 l/m 0 min 0 min 0 W/m 0,0 km/h (0 Bft) 100,00 %
12.09.2023 05:34 19,1 C 17,8 C 14,4 C 97 % 1012,4 hPa 0,0 l/m 0 min 0 min 0 W/m 0,0 km/h (0 Bft) 100,00 %
12.09.2023 05:36 19,1 C 17,8 C 14,4 C 97 % 1012,4 hPa 0,0 l/m 0 min 0 min 0 W/m 0,0 km/h (0 Bft) 97,83 %
12.09.2023 05:38 19,1 C 17,8 C 14,4 C 97 % 1012,3 hPa 0,0 l/m 0 min 0 min 0 W/m 0,0 km/h (0 Bft) 97,87 %
12.09.2023 05:40 19,1 C 17,8 C 14,4 C 97 % 1012,2 hPa 0,0 l/m 0 min 0 min 0 W/m 0,0 km/h (0 Bft) 100,00 %
12.09.2023 05:42 19,1 C 17,8 C 14,4 C 97 % 1012,3 hPa 0,0 l/m 0 min 0 min 0 W/m 0,0 km/h (0 Bft) 97,87 %
12.09.2023 05:44 19,1 C 17,8 C 14,4 C 97 % 1012,3 hPa 0,0 l/m 0 min 0 min 0 W/m 0,0 km/h (0 Bft) 97,87 %
12.09.2023 05:46 19,1 C 17,8 C 14,4 C 97 % 1012,3 hPa 0,0 l/m 0 min 0 min 0 W/m 0,0 km/h (0 Bft) 97,87 %
12.09.2023 05:48 19,1 C 17,8 C 14,4 C 97 % 1012,3 hPa 0,0 l/m 0 min 0 min 0 W/m 0,0 km/h (0 Bft) 97,83 %
12.09.2023 05:50 19,0 C 17,8 C 14,4 C 97 % 1012,4 hPa 0,0 l/m 0 min 0 min 0 W/m 0,0 km/h (0 Bft) 97,87 %
12.09.2023 05:52 19,0 C 17,8 C 14,4 C 97 % 1012,3 hPa 0,0 l/m 0 min 0 min 0 W/m 0,0 km/h (0 Bft) 97,87 %
12.09.2023 05:54 19,0 C 17,8 C 14,4 C 97 % 1012,4 hPa 0,0 l/m 0 min 0 min 0 W/m 0,0 km/h (0 Bft) 97,87 %
12.09.2023 05:56 19,0 C 17,8 C 14,4 C 97 % 1012,3 hPa 0,0 l/m 0 min 0 min 0 W/m 0,0 km/h (0 Bft) 97,87 %
12.09.2023 05:58 18,9 C 17,8 C 14,4 C 97 % 1012,3 hPa 0,0 l/m 0 min 0 min 0 W/m 0,0 km/h (0 Bft) 97,87 %
12.09.2023 06:00 18,9 C 17,8 C 14,4 C 97 % 1012,3 hPa 0,0 l/m 0 min 0 min 0 W/m 0,0 km/h (0 Bft) 95,74 %
12.09.2023 06:02 18,9 C 17,8 C 13,9 C 97 % 1012,4 hPa 0,0 l/m 0 min 0 min 0 W/m 6,4 km/h (2 Bft) 95,74 %
12.09.2023 06:04 18,9 C 17,8 C 13,9 C 97 % 1012,4 hPa 0,0 l/m 0 min 0 min 0 W/m 3,2 km/h (1 Bft) 97,73 %
12.09.2023 06:08 18,8 C 17,8 C 13,9 C 97 % 1012,3 hPa 0,0 l/m 0 min 0 min 0 W/m 6,4 km/h (2 Bft) 97,06 %
12.09.2023 06:10 18,8 C 17,8 C 13,9 C 97 % 1012,3 hPa 0,0 l/m 0 min 0 min 0 W/m 3,2 km/h (1 Bft) 95,74 %
12.09.2023 06:12 18,8 C 17,8 C 14,4 C 97 % 1012,2 hPa 0,0 l/m 0 min 0 min 0 W/m 0,0 km/h (0 Bft) 93,62 %
12.09.2023 06:16 18,8 C 17,8 C 14,4 C 97 % 1012,2 hPa 0,0 l/m 0 min 0 min 0 W/m 0,0 km/h (0 Bft) 98,92 %
12.09.2023 06:18 18,8 C 17,8 C 14,4 C 97 % 1012,3 hPa 0,0 l/m 0 min 0 min 0 W/m 0,0 km/h (0 Bft) 100,00 %
12.09.2023 06:20 18,8 C 17,8 C 14,4 C 97 % 1012,3 hPa 0,0 l/m 0 min 0 min 0 W/m 3,2 km/h (1 Bft) 100,00 %
12.09.2023 06:22 18,8 C 17,8 C 13,9 C 97 % 1012,3 hPa 0,0 l/m 0 min 0 min 0 W/m 6,4 km/h (2 Bft) 97,87 %
12.09.2023 06:24 18,8 C 17,8 C 14,4 C 97 % 1012,3 hPa 0,0 l/m 0 min 0 min 0 W/m 3,2 km/h (1 Bft) 97,87 %
12.09.2023 06:26 18,8 C 17,8 C 14,4 C 97 % 1012,5 hPa 0,0 l/m 0 min 0 min 0 W/m 0,0 km/h (0 Bft) 95,74 %
12.09.2023 06:28 18,8 C 17,8 C 14,4 C 97 % 1012,4 hPa 0,0 l/m 0 min 0 min 0 W/m 0,0 km/h (0 Bft) 97,83 %
12.09.2023 06:30 18,8 C 17,8 C 14,4 C 97 % 1012,5 hPa 0,0 l/m 0 min 0 min 0 W/m 0,0 km/h (0 Bft) 100,00 %
12.09.2023 06:32 18,8 C 17,8 C 14,4 C 97 % 1012,5 hPa 0,0 l/m 0 min 0 min 0 W/m 3,2 km/h (1 Bft) 97,87 %
12.09.2023 06:34 18,8 C 17,8 C 14,4 C 97 % 1012,5 hPa 0,0 l/m 0 min 0 min 0 W/m 0,0 km/h (0 Bft) 97,87 %
12.09.2023 06:36 18,8 C 17,8 C 14,4 C 97 % 1012,4 hPa 0,0 l/m 0 min 0 min 0 W/m 3,2 km/h (1 Bft) 93,62 %
12.09.2023 06:38 18,8 C 17,8 C 14,4 C 97 % 1012,4 hPa 0,0 l/m 0 min 0 min 0 W/m 0,0 km/h (0 Bft) 93,62 %
12.09.2023 06:40 18,8 C 17,8 C 14,4 C 97 % 1012,4 hPa 0,0 l/m 0 min 0 min 0 W/m 3,2 km/h (1 Bft) 95,74 %
12.09.2023 06:42 18,9 C 17,8 C 14,4 C 97 % 1012,4 hPa 0,2 l/m 0 min 0 min 0 W/m 0,0 km/h (0 Bft) 95,65 %
12.09.2023 06:44 18,9 C 17,8 C 14,4 C 98 % 1012,4 hPa 0,0 l/m 0 min 0 min 0 W/m 0,0 km/h (0 Bft) 95,74 %
12.09.2023 06:46 18,9 C 17,8 C 14,4 C 98 % 1012,4 hPa 0,0 l/m 0 min 0 min 0 W/m 0,0 km/h (0 Bft) 95,74 %
12.09.2023 06:48 18,9 C 17,8 C 14,4 C 98 % 1012,4 hPa 0,0 l/m 0 min 0 min 0 W/m 0,0 km/h (0 Bft) 95,74 %
12.09.2023 06:50 18,9 C 17,8 C 14,4 C 98 % 1012,3 hPa 0,0 l/m 0 min 0 min 0 W/m 0,0 km/h (0 Bft) 95,74 %
12.09.2023 06:52 18,9 C 17,8 C 14,4 C 98 % 1012,3 hPa 0,0 l/m 0 min 0 min 0 W/m 0,0 km/h (0 Bft) 93,62 %
12.09.2023 06:54 18,9 C 17,8 C 14,4 C 98 % 1012,3 hPa 0,0 l/m 0 min 0 min 0 W/m 0,0 km/h (0 Bft) 95,74 %
12.09.2023 06:56 18,9 C 17,8 C 14,4 C 98 % 1012,2 hPa 0,0 l/m 0 min 0 min 0 W/m 0,0 km/h (0 Bft) 93,48 %
12.09.2023 06:58 18,9 C 17,8 C 14,4 C 98 % 1012,2 hPa 0,0 l/m 0 min 0 min 0 W/m 0,0 km/h (0 Bft) 95,45 %
12.09.2023 07:00 18,9 C 17,8 C 14,4 C 98 % 1012,4 hPa 0,0 l/m 0 min 0 min 0 W/m 6,4 km/h (2 Bft) 95,74 %
12.09.2023 07:02 18,9 C 17,8 C 14,4 C 98 % 1012,4 hPa 0,0 l/m 0 min 0 min 0 W/m 3,2 km/h (1 Bft) 95,74 %
12.09.2023 07:04 18,8 C 17,8 C 13,9 C 98 % 1012,5 hPa 0,0 l/m 0 min 0 min 0 W/m 6,4 km/h (2 Bft) 96,00 %
12.09.2023 07:06 18,8 C 17,8 C 14,4 C 98 % 1012,5 hPa 0,0 l/m 0 min 0 min 0 W/m 3,2 km/h (1 Bft) 95,74 %
12.09.2023 07:08 18,8 C 17,8 C 14,4 C 98 % 1012,6 hPa 0,0 l/m 0 min 0 min 0 W/m 3,2 km/h (1 Bft) 91,49 %
12.09.2023 07:10 18,8 C 17,8 C 14,4 C 98 % 1012,7 hPa 0,0 l/m 0 min 0 min 0 W/m 3,2 km/h (1 Bft) 97,83 %
12.09.2023 07:12 18,8 C 17,8 C 14,4 C 98 % 1012,7 hPa 0,0 l/m 0 min 0 min 0 W/m 3,2 km/h (1 Bft) 95,74 %
12.09.2023 07:14 18,8 C 17,8 C 14,4 C 98 % 1012,7 hPa 0,0 l/m 0 min 0 min 0 W/m 6,4 km/h (2 Bft) 93,62 %
12.09.2023 07:16 18,9 C 17,8 C 14,4 C 98 % 1012,7 hPa 0,0 l/m 0 min 0 min 0 W/m 3,2 km/h (1 Bft) 95,74 %
12.09.2023 07:18 18,8 C 17,8 C 14,4 C 98 % 1012,7 hPa 0,0 l/m 0 min 0 min 0 W/m 6,4 km/h (2 Bft) 95,74 %
12.09.2023 07:20 18,9 C 17,8 C 14,4 C 98 % 1012,8 hPa 0,0 l/m 0 min 0 min 3 W/m 6,4 km/h (2 Bft) 97,87 %
12.09.2023 07:22 18,8 C 17,8 C 14,4 C 98 % 1012,8 hPa 0,0 l/m 0 min 0 min 5 W/m 6,4 km/h (2 Bft) 97,83 %
12.09.2023 07:24 18,9 C 17,8 C 14,4 C 98 % 1012,8 hPa 0,0 l/m 0 min 0 min 5 W/m 6,4 km/h (2 Bft) 100,00 %
12.09.2023 07:26 18,9 C 17,8 C 14,4 C 98 % 1012,9 hPa 0,0 l/m 0 min 0 min 5 W/m 3,2 km/h (1 Bft) 93,62 %
12.09.2023 07:28 18,9 C 17,8 C 14,4 C 98 % 1012,9 hPa 0,0 l/m 0 min 0 min 6 W/m 3,2 km/h (1 Bft) 100,00 %
12.09.2023 07:30 18,9 C 17,8 C 14,4 C 98 % 1012,9 hPa 0,0 l/m 0 min 0 min 10 W/m 0,0 km/h (0 Bft) 100,00 %
12.09.2023 07:32 18,9 C 17,8 C 14,4 C 98 % 1013,0 hPa 0,0 l/m 0 min 0 min 12 W/m 0,0 km/h (0 Bft) 97,87 %
12.09.2023 07:34 18,9 C 18,3 C 14,4 C 98 % 1013,1 hPa 0,0 l/m 0 min 0 min 11 W/m 0,0 km/h (0 Bft) 97,87 %
12.09.2023 07:36 18,9 C 18,3 C 14,4 C 98 % 1013,2 hPa 0,0 l/m 0 min 0 min 10 W/m 3,2 km/h (1 Bft) 95,74 %
12.09.2023 07:38 19,0 C 18,3 C 14,4 C 98 % 1013,3 hPa 0,0 l/m 0 min 0 min 10 W/m 3,2 km/h (1 Bft) 93,48 %
12.09.2023 07:40 19,0 C 18,3 C 14,4 C 98 % 1013,4 hPa 0,0 l/m 0 min 0 min 11 W/m 3,2 km/h (1 Bft) 95,74 %
12.09.2023 07:42 19,0 C 18,3 C 14,4 C 98 % 1013,4 hPa 0,0 l/m 0 min 0 min 11 W/m 6,4 km/h (2 Bft) 95,74 %
12.09.2023 07:44 19,0 C 18,3 C 14,4 C 98 % 1013,7 hPa 0,0 l/m 0 min 0 min 8 W/m 6,4 km/h (2 Bft) 95,74 %
12.09.2023 07:46 19,1 C 18,3 C 14,4 C 98 % 1014,1 hPa 0,0 l/m 0 min 0 min 4 W/m 12,9 km/h (3 Bft) 97,87 %
12.09.2023 07:48 19,1 C 18,3 C 14,4 C 98 % 1014,3 hPa 0,0 l/m 0 min 0 min 0 W/m 16,1 km/h (3 Bft) 95,74 %
12.09.2023 07:50 19,1 C 18,3 C 14,4 C 98 % 1014,5 hPa 0,6 l/m 0 min 2 min 0 W/m 9,7 km/h (2 Bft) 97,83 %
12.09.2023 07:52 19,1 C 17,8 C 14,4 C 98 % 1014,5 hPa 0,8 l/m 0 min 2 min 0 W/m 19,3 km/h (3 Bft) 95,74 %
12.09.2023 07:54 19,1 C 17,8 C 14,4 C 99 % 1014,0 hPa 0,8 l/m 0 min 2 min 0 W/m 6,4 km/h (2 Bft) 95,74 %
12.09.2023 07:56 19,0 C 17,8 C 14,4 C 99 % 1014,0 hPa 0,6 l/m 0 min 2 min 0 W/m 6,4 km/h (2 Bft) 97,87 %
12.09.2023 07:58 19,0 C 17,8 C 14,4 C 99 % 1014,0 hPa 1,0 l/m 0 min 2 min 0 W/m 6,4 km/h (2 Bft) 97,87 %
12.09.2023 08:00 19,0 C 17,8 C 14,4 C 99 % 1013,6 hPa 1,2 l/m 0 min 2 min 0 W/m 3,2 km/h (1 Bft) 95,74 %
12.09.2023 08:02 18,9 C 17,8 C 14,4 C 98 % 1013,2 hPa 1,2 l/m 0 min 2 min 0 W/m 6,4 km/h (2 Bft) 97,22 %
12.09.2023 08:04 19,0 C 17,8 C 14,4 C 98 % 1013,0 hPa 0,4 l/m 0 min 2 min 0 W/m 6,4 km/h (2 Bft) 97,87 %
12.09.2023 08:06 18,9 C 17,8 C 14,4 C 98 % 1012,9 hPa 0,0 l/m 0 min 2 min 0 W/m 6,4 km/h (2 Bft) 97,87 %
12.09.2023 08:08 18,9 C 17,8 C 14,4 C 98 % 1012,9 hPa 0,0 l/m 0 min 2 min 0 W/m 3,2 km/h (1 Bft) 100,00 %
12.09.2023 08:10 18,9 C 17,8 C 14,4 C 98 % 1012,9 hPa 0,2 l/m 0 min 2 min 0 W/m 3,2 km/h (1 Bft) 100,00 %
12.09.2023 08:12 18,9 C 17,8 C 14,4 C 98 % 1012,8 hPa 0,0 l/m 0 min 2 min 0 W/m 3,2 km/h (1 Bft) 100,00 %
12.09.2023 08:14 18,9 C 17,8 C 14,4 C 98 % 1012,7 hPa 0,0 l/m 0 min 2 min 0 W/m 3,2 km/h (1 Bft) 95,74 %
12.09.2023 08:16 18,9 C 17,8 C 14,4 C 98 % 1012,7 hPa 0,2 l/m 0 min 2 min 0 W/m 6,4 km/h (2 Bft) 100,00 %
12.09.2023 08:18 18,9 C 17,8 C 14,4 C 99 % 1012,7 hPa 0,0 l/m 0 min 2 min 0 W/m 3,2 km/h (1 Bft) 97,87 %
12.09.2023 08:20 18,9 C 17,8 C 14,4 C 99 % 1012,6 hPa 0,0 l/m 0 min 2 min 0 W/m 3,2 km/h (1 Bft) 95,65 %
12.09.2023 08:22 18,9 C 17,8 C 14,4 C 99 % 1012,7 hPa 0,0 l/m 0 min 2 min 0 W/m 6,4 km/h (2 Bft) 97,87 %
12.09.2023 08:24 18,9 C 17,8 C 14,4 C 99 % 1012,7 hPa 0,2 l/m 0 min 2 min 0 W/m 6,4 km/h (2 Bft) 100,00 %
12.09.2023 08:26 18,9 C 17,8 C 14,4 C 99 % 1012,8 hPa 0,2 l/m 0 min 2 min 0 W/m 0,0 km/h (0 Bft) 97,87 %
12.09.2023 08:28 18,8 C 17,8 C 14,4 C 99 % 1012,9 hPa 0,0 l/m 0 min 2 min 0 W/m 9,7 km/h (2 Bft) 100,00 %
12.09.2023 08:30 18,8 C 17,8 C 14,4 C 99 % 1012,9 hPa 0,0 l/m 0 min 2 min 1 W/m 6,4 km/h (2 Bft) 100,00 %
12.09.2023 08:32 18,8 C 17,8 C 14,4 C 99 % 1013,1 hPa 0,0 l/m 0 min 2 min 5 W/m 3,2 km/h (1 Bft) 97,87 %
12.09.2023 08:34 18,8 C 17,8 C 14,4 C 99 % 1013,4 hPa 0,2 l/m 0 min 2 min 5 W/m 3,2 km/h (1 Bft) 100,00 %
12.09.2023 08:36 18,8 C 17,8 C 14,4 C 99 % 1013,4 hPa 0,0 l/m 0 min 2 min 7 W/m 3,2 km/h (1 Bft) 100,00 %
12.09.2023 08:38 18,8 C 17,8 C 14,4 C 99 % 1013,4 hPa 0,0 l/m 0 min 2 min 10 W/m 0,0 km/h (0 Bft) 97,87 %
12.09.2023 08:40 18,8 C 17,8 C 14,4 C 99 % 1013,3 hPa 0,0 l/m 0 min 0 min 11 W/m 0,0 km/h (0 Bft) 100,00 %
12.09.2023 08:42 18,9 C 17,8 C 14,4 C 99 % 1013,3 hPa 0,0 l/m 0 min 0 min 15 W/m 0,0 km/h (0 Bft) 100,00 %
12.09.2023 08:44 18,9 C 17,8 C 14,4 C 99 % 1013,3 hPa 0,0 l/m 0 min 0 min 19 W/m 3,2 km/h (1 Bft) 97,87 %
12.09.2023 08:46 18,9 C 17,8 C 14,4 C 99 % 1013,3 hPa 0,0 l/m 0 min 0 min 23 W/m 0,0 km/h (0 Bft) 100,00 %
12.09.2023 08:48 18,9 C 17,8 C 14,4 C 99 % 1013,3 hPa 0,0 l/m 0 min 0 min 26 W/m 0,0 km/h (0 Bft) 100,00 %
12.09.2023 08:50 18,9 C 17,8 C 14,4 C 99 % 1013,2 hPa 0,0 l/m 0 min 0 min 30 W/m 3,2 km/h (1 Bft) 97,87 %
12.09.2023 08:52 18,9 C 17,8 C 14,4 C 99 % 1013,2 hPa 0,0 l/m 0 min 0 min 32 W/m 3,2 km/h (1 Bft) 100,00 %
12.09.2023 08:54 18,9 C 17,8 C 14,4 C 99 % 1013,3 hPa 0,0 l/m 0 min 0 min 31 W/m 3,2 km/h (1 Bft) 100,00 %
12.09.2023 08:56 18,9 C 17,8 C 14,4 C 99 % 1013,2 hPa 0,0 l/m 0 min 0 min 34 W/m 0,0 km/h (0 Bft) 95,74 %
12.09.2023 08:58 18,9 C 17,8 C 14,4 C 99 % 1013,3 hPa 0,0 l/m 0 min 2 min 42 W/m 0,0 km/h (0 Bft) 100,00 %
12.09.2023 09:00 18,9 C 17,8 C 14,4 C 99 % 1013,2 hPa 0,0 l/m 0 min 2 min 47 W/m 0,0 km/h (0 Bft) 100,00 %
12.09.2023 09:02 18,9 C 17,8 C 14,4 C 99 % 1013,1 hPa 0,0 l/m 0 min 0 min 48 W/m 0,0 km/h (0 Bft) 95,65 %
12.09.2023 09:04 19,0 C 17,8 C 14,4 C 99 % 1013,1 hPa 0,0 l/m 0 min 0 min 52 W/m 0,0 km/h (0 Bft) 100,00 %
12.09.2023 09:06 19,0 C 18,3 C 15,0 C 99 % 1013,1 hPa 0,0 l/m 0 min 0 min 62 W/m 6,4 km/h (2 Bft) 100,00 %
12.09.2023 09:08 19,0 C 18,3 C 15,0 C 99 % 1013,1 hPa 0,0 l/m 0 min 0 min 71 W/m 3,2 km/h (1 Bft) 97,87 %
12.09.2023 09:10 19,1 C 18,3 C 15,0 C 99 % 1013,1 hPa 0,0 l/m 0 min 0 min 79 W/m 0,0 km/h (0 Bft) 100,00 %
12.09.2023 09:12 19,1 C 18,3 C 15,0 C 99 % 1013,1 hPa 0,0 l/m 0 min 0 min 86 W/m 3,2 km/h (1 Bft) 100,00 %
12.09.2023 09:14 19,1 C 18,3 C 15,0 C 99 % 1013,1 hPa 0,0 l/m 0 min 0 min 92 W/m 0,0 km/h (0 Bft) 97,87 %
12.09.2023 09:16 19,1 C 18,3 C 15,0 C 99 % 1013,0 hPa 0,0 l/m 0 min 0 min 93 W/m 3,2 km/h (1 Bft) 97,87 %
12.09.2023 09:18 19,2 C 18,3 C 15,0 C 99 % 1013,0 hPa 0,0 l/m 0 min 0 min 93 W/m 3,2 km/h (1 Bft) 97,87 %
12.09.2023 09:20 19,2 C 18,3 C 15,0 C 99 % 1013,0 hPa 0,0 l/m 0 min 0 min 94 W/m 6,4 km/h (2 Bft) 95,74 %
12.09.2023 09:22 19,2 C 18,3 C 15,0 C 99 % 1013,0 hPa 0,0 l/m 0 min 0 min 92 W/m 12,9 km/h (3 Bft) 100,00 %
12.09.2023 09:24 19,2 C 18,3 C 15,0 C 99 % 1012,9 hPa 0,0 l/m 0 min 0 min 90 W/m 6,4 km/h (2 Bft) 95,74 %
12.09.2023 09:26 19,2 C 18,3 C 15,0 C 99 % 1012,8 hPa 0,0 l/m 0 min 0 min 91 W/m 3,2 km/h (1 Bft) 95,65 %
12.09.2023 09:28 19,2 C 18,3 C 15,0 C 99 % 1012,8 hPa 0,0 l/m 0 min 0 min 92 W/m 3,2 km/h (1 Bft) 93,62 %
12.09.2023 09:30 19,2 C 18,3 C 15,0 C 99 % 1012,8 hPa 0,0 l/m 0 min 0 min 95 W/m 6,4 km/h (2 Bft) 93,62 %
12.09.2023 09:32 19,2 C 18,3 C 15,0 C 99 % 1012,8 hPa 0,0 l/m 0 min 0 min 99 W/m 0,0 km/h (0 Bft) 93,62 %
12.09.2023 09:34 19,3 C 18,9 C 15,0 C 99 % 1012,9 hPa 0,0 l/m 0 min 0 min 101 W/m 0,0 km/h (0 Bft) 95,74 %
12.09.2023 09:36 19,3 C 18,3 C 15,0 C 99 % 1012,9 hPa 0,0 l/m 0 min 0 min 107 W/m 6,4 km/h (2 Bft) 95,74 %
12.09.2023 09:38 19,3 C 18,9 C 15,0 C 99 % 1012,9 hPa 0,0 l/m 0 min 0 min 115 W/m 3,2 km/h (1 Bft) 93,62 %
12.09.2023 09:40 19,3 C 18,9 C 15,0 C 99 % 1013,0 hPa 0,0 l/m 0 min 0 min 126 W/m 6,4 km/h (2 Bft) 95,65 %
12.09.2023 09:42 19,3 C 18,9 C 15,6 C 99 % 1013,0 hPa 0,0 l/m 0 min 0 min 137 W/m 3,2 km/h (1 Bft) 93,62 %
12.09.2023 09:44 19,4 C 18,9 C 15,6 C 99 % 1013,1 hPa 0,0 l/m 0 min 0 min 152 W/m 3,2 km/h (1 Bft) 93,62 %
12.09.2023 09:46 19,4 C 18,9 C 15,6 C 99 % 1013,1 hPa 0,0 l/m 0 min 0 min 155 W/m 3,2 km/h (1 Bft) 91,49 %
12.09.2023 09:48 19,5 C 18,9 C 15,6 C 99 % 1013,1 hPa 0,0 l/m 0 min 0 min 152 W/m 3,2 km/h (1 Bft) 93,62 %
12.09.2023 09:50 19,4 C 18,9 C 15,0 C 99 % 1013,0 hPa 0,0 l/m 0 min 0 min 145 W/m 6,4 km/h (2 Bft) 91,49 %
12.09.2023 09:52 19,4 C 18,9 C 15,6 C 99 % 1013,0 hPa 0,0 l/m 0 min 0 min 136 W/m 3,2 km/h (1 Bft) 95,74 %
12.09.2023 09:54 19,4 C 18,9 C 15,0 C 99 % 1013,0 hPa 0,0 l/m 0 min 0 min 126 W/m 3,2 km/h (1 Bft) 91,30 %
12.09.2023 09:56 19,4 C 18,9 C 15,0 C 99 % 1013,0 hPa 0,0 l/m 0 min 0 min 116 W/m 3,2 km/h (1 Bft) 93,62 %
12.09.2023 09:58 19,4 C 18,9 C 15,0 C 99 % 1013,0 hPa 0,0 l/m 0 min 0 min 125 W/m 6,4 km/h (2 Bft) 93,62 %
12.09.2023 10:00 19,4 C 19,4 C 15,0 C 99 % 1013,0 hPa 0,0 l/m 0 min 0 min 117 W/m 3,2 km/h (1 Bft) 93,62 %
12.09.2023 10:02 19,5 C 19,4 C 15,6 C 99 % 1013,0 hPa 0,0 l/m 0 min 0 min 101 W/m 3,2 km/h (1 Bft) 91,49 %
12.09.2023 10:04 19,6 C 19,4 C 15,6 C 99 % 1013,0 hPa 0,0 l/m 0 min 0 min 98 W/m 6,4 km/h (2 Bft) 96,00 %
12.09.2023 10:06 19,6 C 19,4 C 15,6 C 99 % 1013,1 hPa 0,0 l/m 0 min 0 min 156 W/m 3,2 km/h (1 Bft) 93,62 %
12.09.2023 10:08 19,5 C 19,4 C 15,0 C 99 % 1013,1 hPa 0,0 l/m 0 min 0 min 121 W/m 6,4 km/h (2 Bft) 95,74 %
12.09.2023 10:10 19,5 C 19,4 C 15,6 C 99 % 1013,1 hPa 0,0 l/m 0 min 0 min 107 W/m 3,2 km/h (1 Bft) 97,87 %
12.09.2023 10:12 19,5 C 19,4 C 15,6 C 99 % 1013,1 hPa 0,0 l/m 0 min 0 min 108 W/m 0,0 km/h (0 Bft) 95,65 %
12.09.2023 10:14 19,6 C 19,4 C 15,6 C 99 % 1013,1 hPa 0,0 l/m 0 min 0 min 103 W/m 6,4 km/h (2 Bft) 97,87 %
12.09.2023 10:16 19,6 C 18,9 C 15,6 C 99 % 1013,1 hPa 0,0 l/m 0 min 0 min 91 W/m 3,2 km/h (1 Bft) 97,87 %
12.09.2023 10:18 19,6 C 19,4 C 15,6 C 99 % 1013,1 hPa 0,0 l/m 0 min 0 min 91 W/m 0,0 km/h (0 Bft) 95,74 %
12.09.2023 10:20 19,6 C 19,4 C 15,6 C 99 % 1013,1 hPa 0,0 l/m 0 min 0 min 104 W/m 3,2 km/h (1 Bft) 95,74 %
12.09.2023 10:22 19,7 C 19,4 C 15,6 C 99 % 1013,1 hPa 0,0 l/m 0 min 0 min 115 W/m 3,2 km/h (1 Bft) 97,87 %
12.09.2023 10:24 19,7 C 19,4 C 15,6 C 99 % 1013,1 hPa 0,0 l/m 0 min 0 min 112 W/m 3,2 km/h (1 Bft) 97,83 %
12.09.2023 10:26 19,8 C 19,4 C 15,6 C 99 % 1013,2 hPa 0,0 l/m 0 min 0 min 108 W/m 6,4 km/h (2 Bft) 95,74 %
12.09.2023 10:28 19,8 C 19,4 C 15,6 C 99 % 1013,3 hPa 0,0 l/m 0 min 0 min 144 W/m 3,2 km/h (1 Bft) 97,87 %
12.09.2023 10:30 19,8 C 19,4 C 15,6 C 99 % 1013,3 hPa 0,0 l/m 0 min 0 min 170 W/m 6,4 km/h (2 Bft) 97,87 %
12.09.2023 10:32 19,8 C 20,0 C 15,6 C 99 % 1013,4 hPa 0,0 l/m 2 min 0 min 406 W/m 9,7 km/h (2 Bft) 100,00 %
12.09.2023 10:34 19,8 C 20,0 C 15,6 C 99 % 1013,4 hPa 0,0 l/m 2 min 0 min 466 W/m 3,2 km/h (1 Bft) 100,00 %
12.09.2023 10:36 19,8 C 20,0 C 15,6 C 100 % 1013,4 hPa 0,0 l/m 2 min 0 min 473 W/m 12,9 km/h (3 Bft) 97,87 %
12.09.2023 10:38 19,9 C 20,0 C 16,1 C 100 % 1013,5 hPa 0,0 l/m 2 min 0 min 466 W/m 12,9 km/h (3 Bft) 100,00 %
12.09.2023 10:40 19,9 C 20,0 C 16,1 C 100 % 1013,5 hPa 0,0 l/m 2 min 0 min 317 W/m 6,4 km/h (2 Bft) 97,83 %
12.09.2023 10:42 20,0 C 20,0 C 16,1 C 100 % 1013,6 hPa 0,0 l/m 0 min 0 min 139 W/m 6,4 km/h (2 Bft) 100,00 %
12.09.2023 10:44 20,1 C 20,0 C 16,1 C 99 % 1013,7 hPa 0,0 l/m 0 min 0 min 215 W/m 12,9 km/h (3 Bft) 100,00 %
12.09.2023 10:46 20,1 C 20,0 C 16,1 C 99 % 1013,7 hPa 0,0 l/m 0 min 0 min 208 W/m 6,4 km/h (2 Bft) 100,00 %
12.09.2023 10:48 20,1 C 20,0 C 16,1 C 99 % 1013,7 hPa 0,0 l/m 0 min 0 min 139 W/m 6,4 km/h (2 Bft) 100,00 %
12.09.2023 10:50 20,0 C 20,0 C 15,6 C 99 % 1013,7 hPa 0,0 l/m 0 min 0 min 149 W/m 6,4 km/h (2 Bft) 100,00 %
12.09.2023 10:52 20,0 C 20,0 C 15,6 C 99 % 1013,7 hPa 0,0 l/m 0 min 0 min 144 W/m 9,7 km/h (2 Bft) 100,00 %
12.09.2023 10:54 20,1 C 20,0 C 15,6 C 99 % 1013,7 hPa 0,0 l/m 0 min 0 min 170 W/m 9,7 km/h (2 Bft) 97,87 %
12.09.2023 10:56 20,1 C 20,0 C 15,6 C 99 % 1013,8 hPa 0,0 l/m 0 min 0 min 216 W/m 9,7 km/h (2 Bft) 100,00 %
12.09.2023 10:58 20,1 C 20,6 C 15,6 C 99 % 1013,8 hPa 0,0 l/m 2 min 0 min 338 W/m 3,2 km/h (1 Bft) 100,00 %
12.09.2023 11:00 20,1 C 21,1 C 16,1 C 99 % 1013,7 hPa 0,0 l/m 2 min 0 min 512 W/m 9,7 km/h (2 Bft) 100,00 %
12.09.2023 11:02 20,2 C 21,7 C 15,6 C 99 % 1013,8 hPa 0,0 l/m 2 min 0 min 549 W/m 3,2 km/h (1 Bft) 97,87 %
12.09.2023 11:04 20,2 C 22,8 C 15,6 C 99 % 1013,9 hPa 0,0 l/m 2 min 0 min 517 W/m 3,2 km/h (1 Bft) 100,00 %
12.09.2023 11:06 20,2 C 23,9 C 16,1 C 99 % 1013,9 hPa 0,0 l/m 2 min 0 min 514 W/m 9,7 km/h (2 Bft) 100,00 %
12.09.2023 11:08 20,2 C 23,9 C 16,1 C 99 % 1014,1 hPa 0,0 l/m 2 min 0 min 528 W/m 6,4 km/h (2 Bft) 95,74 %
12.09.2023 11:10 20,3 C 23,9 C 16,1 C 99 % 1014,0 hPa 0,0 l/m 2 min 0 min 530 W/m 6,4 km/h (2 Bft) 100,00 %
12.09.2023 11:12 20,3 C 23,9 C 16,1 C 99 % 1014,0 hPa 0,0 l/m 2 min 0 min 408 W/m 6,4 km/h (2 Bft) 100,00 %
12.09.2023 11:14 20,4 C 23,3 C 16,1 C 99 % 1014,0 hPa 0,0 l/m 0 min 0 min 268 W/m 9,7 km/h (2 Bft) 100,00 %
12.09.2023 11:16 20,4 C 22,8 C 16,1 C 99 % 1014,0 hPa 0,0 l/m 0 min 0 min 253 W/m 6,4 km/h (2 Bft) 100,00 %
12.09.2023 11:18 20,4 C 22,8 C 16,1 C 99 % 1013,9 hPa 0,0 l/m 0 min 0 min 271 W/m 6,4 km/h (2 Bft) 97,14 %
12.09.2023 11:20 20,5 C 22,8 C 16,1 C 98 % 1013,9 hPa 0,0 l/m 2 min 0 min 298 W/m 6,4 km/h (2 Bft) 100,00 %
12.09.2023 11:22 20,6 C 22,8 C 16,7 C 99 % 1013,9 hPa 0,0 l/m 0 min 0 min 285 W/m 6,4 km/h (2 Bft) 97,87 %
12.09.2023 11:24 20,6 C 22,2 C 16,1 C 98 % 1013,9 hPa 0,0 l/m 0 min 0 min 276 W/m 9,7 km/h (2 Bft) 100,00 %
12.09.2023 11:26 20,7 C 22,2 C 16,1 C 98 % 1013,9 hPa 0,0 l/m 0 min 0 min 253 W/m 6,4 km/h (2 Bft) 100,00 %
12.09.2023 11:28 20,7 C 22,2 C 16,1 C 98 % 1013,9 hPa 0,0 l/m 0 min 0 min 246 W/m 9,7 km/h (2 Bft) 97,87 %
12.09.2023 11:30 20,8 C 22,2 C 16,1 C 98 % 1013,9 hPa 0,0 l/m 0 min 0 min 263 W/m 6,4 km/h (2 Bft) 97,87 %
12.09.2023 11:32 20,8 C 22,2 C 16,1 C 98 % 1013,8 hPa 0,0 l/m 0 min 0 min 235 W/m 9,7 km/h (2 Bft) 97,83 %
12.09.2023 11:34 20,8 C 22,8 C 16,1 C 98 % 1013,8 hPa 0,0 l/m 0 min 0 min 248 W/m 3,2 km/h (1 Bft) 97,87 %
12.09.2023 11:36 20,9 C 22,8 C 16,7 C 97 % 1013,9 hPa 0,0 l/m 0 min 0 min 272 W/m 12,9 km/h (3 Bft) 95,74 %
12.09.2023 11:38 21,0 C 22,8 C 16,7 C 97 % 1013,9 hPa 0,0 l/m 2 min 0 min 380 W/m 9,7 km/h (2 Bft) 95,74 %
12.09.2023 11:40 21,1 C 23,3 C 16,7 C 97 % 1013,8 hPa 0,0 l/m 2 min 0 min 450 W/m 6,4 km/h (2 Bft) 97,87 %
12.09.2023 11:42 21,1 C 23,3 C 16,7 C 97 % 1013,9 hPa 0,0 l/m 2 min 0 min 589 W/m 6,4 km/h (2 Bft) 93,62 %
12.09.2023 11:44 21,2 C 23,9 C 16,7 C 97 % 1013,9 hPa 0,0 l/m 2 min 0 min 594 W/m 9,7 km/h (2 Bft) 95,74 %
12.09.2023 11:46 21,3 C 24,4 C 16,7 C 96 % 1013,9 hPa 0,0 l/m 2 min 0 min 605 W/m 9,7 km/h (2 Bft) 97,87 %
12.09.2023 11:48 21,4 C 25,0 C 16,7 C 96 % 1013,8 hPa 0,0 l/m 2 min 0 min 631 W/m 6,4 km/h (2 Bft) 97,83 %
12.09.2023 11:50 21,4 C 26,7 C 16,7 C 95 % 1013,8 hPa 0,0 l/m 2 min 0 min 657 W/m 16,1 km/h (3 Bft) 97,87 %
12.09.2023 11:52 21,6 C 26,1 C 16,7 C 95 % 1013,7 hPa 0,0 l/m 2 min 0 min 663 W/m 16,1 km/h (3 Bft) 97,87 %
12.09.2023 11:54 21,6 C 26,1 C 17,2 C 94 % 1013,7 hPa 0,0 l/m 2 min 0 min 628 W/m 19,3 km/h (3 Bft) 97,87 %
12.09.2023 11:56 21,6 C 26,1 C 17,2 C 94 % 1013,7 hPa 0,0 l/m 2 min 0 min 632 W/m 16,1 km/h (3 Bft) 97,87 %
12.09.2023 11:58 21,7 C 26,1 C 17,2 C 93 % 1013,7 hPa 0,0 l/m 2 min 0 min 620 W/m 12,9 km/h (3 Bft) 97,14 %
12.09.2023 12:00 21,8 C 26,1 C 17,2 C 93 % 1013,7 hPa 0,0 l/m 2 min 0 min 644 W/m 16,1 km/h (3 Bft) 98,33 %
12.09.2023 12:02 21,9 C 26,7 C 17,8 C 92 % 1013,7 hPa 0,0 l/m 2 min 0 min 641 W/m 12,9 km/h (3 Bft) 93,62 %
12.09.2023 12:04 22,0 C 27,2 C 17,8 C 91 % 1013,7 hPa 0,0 l/m 2 min 0 min 623 W/m 9,7 km/h (2 Bft) 93,75 %
12.09.2023 12:08 22,2 C 27,8 C 17,2 C 90 % 1013,7 hPa 0,0 l/m 4 min 0 min 620 W/m 12,9 km/h (3 Bft) 96,51 %
12.09.2023 12:10 22,3 C 27,8 C 17,2 C 89 % 1013,7 hPa 0,0 l/m 2 min 0 min 601 W/m 19,3 km/h (3 Bft) 97,83 %
12.09.2023 12:12 22,3 C 27,2 C 17,2 C 88 % 1013,7 hPa 0,0 l/m 2 min 0 min 534 W/m 6,4 km/h (2 Bft) 97,87 %
12.09.2023 12:16 22,6 C 26,1 C 16,7 C 87 % 1013,7 hPa 0,0 l/m 4 min 0 min 388 W/m 12,9 km/h (3 Bft) 96,81 %
12.09.2023 12:18 22,6 C 25,6 C 16,7 C 87 % 1013,6 hPa 0,0 l/m 2 min 0 min 472 W/m 9,7 km/h (2 Bft) 97,87 %
12.09.2023 12:20 22,7 C 24,4 C 16,7 C 87 % 1013,7 hPa 0,0 l/m 0 min 0 min 292 W/m 16,1 km/h (3 Bft) 97,87 %
12.09.2023 12:22 22,7 C 24,4 C 16,7 C 86 % 1013,7 hPa 0,0 l/m 0 min 0 min 246 W/m 6,4 km/h (2 Bft) 95,74 %
12.09.2023 12:24 22,7 C 24,4 C 16,7 C 86 % 1013,7 hPa 0,0 l/m 0 min 0 min 189 W/m 6,4 km/h (2 Bft) 93,48 %
12.09.2023 12:26 22,8 C 23,9 C 16,7 C 85 % 1013,7 hPa 0,0 l/m 0 min 0 min 199 W/m 12,9 km/h (3 Bft) 97,87 %
12.09.2023 12:28 22,8 C 24,4 C 16,7 C 85 % 1013,7 hPa 0,0 l/m 0 min 0 min 198 W/m 9,7 km/h (2 Bft) 97,87 %
12.09.2023 12:30 22,8 C 24,4 C 16,7 C 85 % 1013,7 hPa 0,0 l/m 0 min 0 min 174 W/m 9,7 km/h (2 Bft) 97,87 %
12.09.2023 12:32 22,9 C 24,4 C 17,2 C 85 % 1013,7 hPa 0,0 l/m 0 min 0 min 187 W/m 6,4 km/h (2 Bft) 95,74 %
12.09.2023 12:34 23,0 C 24,4 C 18,3 C 85 % 1013,6 hPa 0,0 l/m 0 min 0 min 251 W/m 9,7 km/h (2 Bft) 97,87 %
12.09.2023 12:36 22,9 C 23,9 C 18,3 C 84 % 1013,6 hPa 0,0 l/m 0 min 0 min 213 W/m 9,7 km/h (2 Bft) 97,83 %
12.09.2023 12:38 23,0 C 23,9 C 18,9 C 85 % 1013,6 hPa 0,0 l/m 0 min 0 min 223 W/m 6,4 km/h (2 Bft) 95,74 %
12.09.2023 12:40 23,1 C 23,3 C 18,9 C 85 % 1013,6 hPa 0,0 l/m 0 min 0 min 199 W/m 9,7 km/h (2 Bft) 95,74 %
12.09.2023 12:42 23,1 C 23,3 C 18,9 C 85 % 1013,6 hPa 0,0 l/m 0 min 0 min 161 W/m 12,9 km/h (3 Bft) 93,62 %
12.09.2023 12:44 23,1 C 23,3 C 18,9 C 85 % 1013,7 hPa 0,0 l/m 0 min 0 min 190 W/m 3,2 km/h (1 Bft) 95,74 %
12.09.2023 12:46 23,1 C 23,3 C 18,9 C 84 % 1013,6 hPa 0,0 l/m 0 min 0 min 229 W/m 6,4 km/h (2 Bft) 93,62 %
12.09.2023 12:48 23,1 C 23,3 C 18,9 C 84 % 1013,6 hPa 0,0 l/m 0 min 0 min 226 W/m 6,4 km/h (2 Bft) 97,87 %
12.09.2023 12:50 23,1 C 23,3 C 18,9 C 84 % 1013,6 hPa 0,0 l/m 0 min 0 min 222 W/m 9,7 km/h (2 Bft) 93,48 %
12.09.2023 12:52 23,1 C 23,3 C 18,9 C 84 % 1013,5 hPa 0,0 l/m 0 min 0 min 223 W/m 6,4 km/h (2 Bft) 97,87 %
12.09.2023 12:54 23,2 C 23,3 C 18,9 C 84 % 1013,6 hPa 0,0 l/m 0 min 0 min 208 W/m 3,2 km/h (1 Bft) 97,87 %
12.09.2023 12:56 23,2 C 23,3 C 19,4 C 84 % 1013,5 hPa 0,0 l/m 0 min 0 min 192 W/m 3,2 km/h (1 Bft) 98,00 %
12.09.2023 12:58 23,2 C 23,3 C 19,4 C 84 % 1013,4 hPa 0,0 l/m 0 min 0 min 192 W/m 3,2 km/h (1 Bft) 95,74 %
12.09.2023 13:00 23,2 C 23,3 C 19,4 C 84 % 1013,4 hPa 0,0 l/m 0 min 0 min 232 W/m 3,2 km/h (1 Bft) 97,87 %
12.09.2023 13:02 23,3 C 23,9 C 19,4 C 85 % 1013,4 hPa 0,0 l/m 0 min 0 min 237 W/m 9,7 km/h (2 Bft) 95,74 %
12.09.2023 13:04 23,3 C 23,9 C 19,4 C 84 % 1013,4 hPa 0,0 l/m 0 min 0 min 248 W/m 3,2 km/h (1 Bft) 97,87 %
12.09.2023 13:06 23,3 C 23,9 C 19,4 C 84 % 1013,4 hPa 0,0 l/m 0 min 0 min 283 W/m 6,4 km/h (2 Bft) 95,65 %
12.09.2023 13:08 23,3 C 23,9 C 19,4 C 82 % 1013,4 hPa 0,0 l/m 0 min 0 min 310 W/m 12,9 km/h (3 Bft) 97,87 %
12.09.2023 13:10 23,2 C 23,9 C 19,4 C 82 % 1013,4 hPa 0,0 l/m 0 min 0 min 311 W/m 3,2 km/h (1 Bft) 95,74 %
12.09.2023 13:12 23,3 C 23,9 C 19,4 C 82 % 1013,4 hPa 0,0 l/m 0 min 0 min 308 W/m 6,4 km/h (2 Bft) 97,87 %
12.09.2023 13:14 23,3 C 23,9 C 19,4 C 83 % 1013,4 hPa 0,0 l/m 0 min 0 min 278 W/m 9,7 km/h (2 Bft) 95,74 %
12.09.2023 13:16 23,3 C 23,9 C 19,4 C 83 % 1013,4 hPa 0,0 l/m 0 min 0 min 230 W/m 6,4 km/h (2 Bft) 95,74 %
12.09.2023 13:18 23,4 C 23,9 C 19,4 C 83 % 1013,4 hPa 0,0 l/m 0 min 0 min 197 W/m 6,4 km/h (2 Bft) 97,87 %
12.09.2023 13:20 23,4 C 23,9 C 19,4 C 82 % 1013,5 hPa 0,0 l/m 0 min 0 min 191 W/m 3,2 km/h (1 Bft) 97,83 %
12.09.2023 13:22 23,5 C 23,9 C 19,4 C 82 % 1013,5 hPa 0,0 l/m 0 min 0 min 194 W/m 12,9 km/h (3 Bft) 97,87 %
12.09.2023 13:24 23,5 C 23,9 C 19,4 C 81 % 1013,4 hPa 0,0 l/m 0 min 0 min 188 W/m 12,9 km/h (3 Bft) 95,74 %
12.09.2023 13:26 23,6 C 23,9 C 19,4 C 81 % 1013,4 hPa 0,0 l/m 0 min 0 min 185 W/m 6,4 km/h (2 Bft) 97,87 %
12.09.2023 13:28 23,6 C 23,9 C 19,4 C 82 % 1013,5 hPa 0,0 l/m 0 min 0 min 207 W/m 9,7 km/h (2 Bft) 97,87 %
12.09.2023 13:30 23,6 C 23,9 C 19,4 C 81 % 1013,5 hPa 0,0 l/m 0 min 0 min 215 W/m 6,4 km/h (2 Bft) 97,87 %
12.09.2023 13:32 23,7 C 24,4 C 19,4 C 82 % 1013,5 hPa 0,0 l/m 0 min 0 min 216 W/m 6,4 km/h (2 Bft) 97,83 %
12.09.2023 13:34 23,8 C 24,4 C 20,0 C 82 % 1013,5 hPa 0,0 l/m 0 min 0 min 222 W/m 6,4 km/h (2 Bft) 95,74 %
12.09.2023 13:36 23,9 C 24,4 C 20,0 C 83 % 1013,6 hPa 0,0 l/m 0 min 0 min 281 W/m 6,4 km/h (2 Bft) 95,74 %
12.09.2023 13:38 23,9 C 24,4 C 20,0 C 82 % 1013,6 hPa 0,0 l/m 0 min 0 min 233 W/m 3,2 km/h (1 Bft) 97,87 %
12.09.2023 13:40 23,9 C 24,4 C 20,0 C 82 % 1013,6 hPa 0,0 l/m 0 min 0 min 224 W/m 6,4 km/h (2 Bft) 97,87 %
12.09.2023 13:42 23,9 C 24,4 C 19,4 C 81 % 1013,6 hPa 0,0 l/m 0 min 0 min 253 W/m 12,9 km/h (3 Bft) 95,74 %
12.09.2023 13:44 24,0 C 24,4 C 19,4 C 81 % 1013,6 hPa 0,0 l/m 2 min 0 min 355 W/m 9,7 km/h (2 Bft) 97,83 %
12.09.2023 13:46 24,0 C 24,4 C 19,4 C 81 % 1013,5 hPa 0,0 l/m 2 min 0 min 453 W/m 6,4 km/h (2 Bft) 97,87 %
12.09.2023 13:48 24,0 C 23,9 C 19,4 C 81 % 1013,5 hPa 0,0 l/m 0 min 0 min 258 W/m 3,2 km/h (1 Bft) 97,87 %
12.09.2023 13:50 24,1 C 23,9 C 19,4 C 80 % 1013,5 hPa 0,0 l/m 0 min 0 min 216 W/m 3,2 km/h (1 Bft) 100,00 %
12.09.2023 13:52 24,0 C 23,9 C 19,4 C 80 % 1013,5 hPa 0,0 l/m 2 min 0 min 355 W/m 12,9 km/h (3 Bft) 97,87 %
12.09.2023 13:54 24,0 C 24,4 C 19,4 C 81 % 1013,5 hPa 0,0 l/m 2 min 0 min 488 W/m 6,4 km/h (2 Bft) 97,87 %
12.09.2023 13:56 24,0 C 24,4 C 19,4 C 80 % 1013,6 hPa 0,0 l/m 2 min 0 min 523 W/m 6,4 km/h (2 Bft) 95,74 %
12.09.2023 13:58 24,0 C 25,0 C 19,4 C 80 % 1013,7 hPa 0,0 l/m 2 min 0 min 588 W/m 16,1 km/h (3 Bft) 97,83 %
12.09.2023 14:00 24,0 C 25,0 C 19,4 C 80 % 1013,6 hPa 0,0 l/m 2 min 0 min 649 W/m 6,4 km/h (2 Bft) 97,87 %
12.09.2023 14:02 24,1 C 25,0 C 19,4 C 80 % 1013,7 hPa 0,0 l/m 2 min 0 min 595 W/m 9,7 km/h (2 Bft) 97,87 %
12.09.2023 14:04 24,1 C 25,6 C 19,4 C 79 % 1013,7 hPa 0,0 l/m 2 min 0 min 671 W/m 6,4 km/h (2 Bft) 95,74 %
12.09.2023 14:06 24,2 C 26,1 C 19,4 C 79 % 1013,6 hPa 0,0 l/m 2 min 0 min 701 W/m 9,7 km/h (2 Bft) 97,87 %
12.09.2023 14:08 24,2 C 26,7 C 20,0 C 78 % 1013,6 hPa 0,0 l/m 2 min 0 min 687 W/m 6,4 km/h (2 Bft) 97,87 %
12.09.2023 14:10 24,3 C 27,2 C 20,0 C 79 % 1013,6 hPa 0,0 l/m 2 min 0 min 705 W/m 3,2 km/h (1 Bft) 100,00 %
12.09.2023 14:12 24,4 C 27,8 C 20,0 C 79 % 1013,6 hPa 0,0 l/m 2 min 0 min 734 W/m 3,2 km/h (1 Bft) 100,00 %
12.09.2023 14:14 24,6 C 27,2 C 20,0 C 78 % 1013,6 hPa 0,0 l/m 2 min 0 min 777 W/m 6,4 km/h (2 Bft) 100,00 %
12.09.2023 14:16 24,6 C 27,8 C 20,0 C 78 % 1013,5 hPa 0,0 l/m 2 min 0 min 825 W/m 6,4 km/h (2 Bft) 100,00 %
12.09.2023 14:18 24,7 C 28,3 C 20,0 C 78 % 1013,5 hPa 0,0 l/m 2 min 0 min 797 W/m 6,4 km/h (2 Bft) 97,87 %
12.09.2023 14:20 24,8 C 30,0 C 20,0 C 78 % 1013,4 hPa 0,0 l/m 2 min 0 min 785 W/m 6,4 km/h (2 Bft) 100,00 %
12.09.2023 14:22 24,9 C 29,4 C 20,6 C 79 % 1013,5 hPa 0,0 l/m 2 min 0 min 791 W/m 3,2 km/h (1 Bft) 100,00 %
12.09.2023 14:24 25,1 C 28,9 C 20,0 C 78 % 1013,5 hPa 0,0 l/m 2 min 0 min 422 W/m 9,7 km/h (2 Bft) 100,00 %
12.09.2023 14:26 25,1 C 27,8 C 20,0 C 77 % 1013,4 hPa 0,0 l/m 2 min 0 min 587 W/m 6,4 km/h (2 Bft) 97,87 %
12.09.2023 14:28 25,1 C 27,2 C 20,0 C 77 % 1013,4 hPa 0,0 l/m 2 min 0 min 621 W/m 12,9 km/h (3 Bft) 100,00 %
12.09.2023 14:30 25,1 C 26,1 C 20,0 C 76 % 1013,5 hPa 0,0 l/m 2 min 0 min 481 W/m 6,4 km/h (2 Bft) 100,00 %
12.09.2023 14:32 24,9 C 25,6 C 20,0 C 75 % 1013,4 hPa 0,0 l/m 0 min 0 min 165 W/m 3,2 km/h (1 Bft) 100,00 %
12.09.2023 14:34 24,9 C 25,0 C 20,0 C 76 % 1013,4 hPa 0,0 l/m 0 min 0 min 169 W/m 0,0 km/h (0 Bft) 100,00 %
12.09.2023 14:36 24,8 C 25,0 C 19,4 C 76 % 1013,4 hPa 0,0 l/m 0 min 0 min 172 W/m 3,2 km/h (1 Bft) 97,83 %
12.09.2023 14:38 24,8 C 25,6 C 20,0 C 77 % 1013,3 hPa 0,0 l/m 2 min 0 min 410 W/m 6,4 km/h (2 Bft) 97,87 %
12.09.2023 14:40 24,8 C 25,6 C 20,0 C 78 % 1013,3 hPa 0,0 l/m 2 min 0 min 762 W/m 6,4 km/h (2 Bft) 95,74 %
12.09.2023 14:42 24,9 C 25,6 C 20,0 C 77 % 1013,3 hPa 0,0 l/m 2 min 0 min 462 W/m 6,4 km/h (2 Bft) 97,87 %
12.09.2023 14:44 24,9 C 25,6 C 20,0 C 77 % 1013,2 hPa 0,0 l/m 2 min 0 min 381 W/m 6,4 km/h (2 Bft) 97,87 %
12.09.2023 14:46 24,9 C 25,6 C 20,0 C 77 % 1013,2 hPa 0,0 l/m 2 min 0 min 444 W/m 0,0 km/h (0 Bft) 97,87 %
12.09.2023 14:48 24,9 C 25,6 C 20,0 C 77 % 1013,2 hPa 0,0 l/m 2 min 0 min 635 W/m 6,4 km/h (2 Bft) 97,83 %
12.09.2023 14:50 25,0 C 25,6 C 20,0 C 76 % 1013,1 hPa 0,0 l/m 2 min 0 min 636 W/m 6,4 km/h (2 Bft) 97,87 %
12.09.2023 14:52 25,1 C 26,1 C 20,0 C 76 % 1013,1 hPa 0,0 l/m 2 min 0 min 627 W/m 6,4 km/h (2 Bft) 97,87 %
12.09.2023 14:54 25,2 C 26,1 C 20,6 C 77 % 1013,1 hPa 0,0 l/m 2 min 0 min 706 W/m 6,4 km/h (2 Bft) 97,87 %
12.09.2023 14:56 25,2 C 26,1 C 20,6 C 77 % 1013,0 hPa 0,0 l/m 2 min 0 min 706 W/m 9,7 km/h (2 Bft) 97,87 %
12.09.2023 14:58 25,4 C 26,1 C 20,6 C 77 % 1012,9 hPa 0,0 l/m 2 min 0 min 664 W/m 12,9 km/h (3 Bft) 95,74 %
12.09.2023 15:00 25,4 C 26,1 C 20,6 C 76 % 1012,9 hPa 0,0 l/m 2 min 0 min 693 W/m 9,7 km/h (2 Bft) 97,87 %
12.09.2023 15:02 25,4 C 26,1 C 20,6 C 76 % 1012,9 hPa 0,0 l/m 2 min 0 min 703 W/m 6,4 km/h (2 Bft) 95,65 %
12.09.2023 15:04 25,5 C 25,6 C 20,6 C 75 % 1012,9 hPa 0,0 l/m 2 min 0 min 699 W/m 6,4 km/h (2 Bft) 97,73 %
12.09.2023 15:06 25,6 C 25,6 C 20,6 C 75 % 1012,9 hPa 0,0 l/m 2 min 0 min 684 W/m 6,4 km/h (2 Bft) 95,74 %
12.09.2023 15:08 25,5 C 25,6 C 20,6 C 75 % 1012,9 hPa 0,0 l/m 2 min 0 min 675 W/m 9,7 km/h (2 Bft) 97,87 %
12.09.2023 15:10 25,6 C 25,6 C 20,6 C 75 % 1012,8 hPa 0,0 l/m 2 min 0 min 674 W/m 6,4 km/h (2 Bft) 97,83 %
12.09.2023 15:12 25,6 C 25,6 C 20,6 C 75 % 1012,8 hPa 0,0 l/m 2 min 0 min 670 W/m 6,4 km/h (2 Bft) 97,87 %
12.09.2023 15:14 25,7 C 25,6 C 20,6 C 75 % 1012,8 hPa 0,0 l/m 2 min 0 min 677 W/m 6,4 km/h (2 Bft) 97,87 %
12.09.2023 15:16 25,8 C 25,6 C 20,6 C 75 % 1012,7 hPa 0,0 l/m 2 min 0 min 672 W/m 6,4 km/h (2 Bft) 93,62 %
12.09.2023 15:18 25,8 C 25,6 C 20,6 C 74 % 1012,7 hPa 0,0 l/m 2 min 0 min 707 W/m 9,7 km/h (2 Bft) 97,87 %
12.09.2023 15:20 25,9 C 25,6 C 20,6 C 74 % 1012,7 hPa 0,0 l/m 2 min 0 min 746 W/m 6,4 km/h (2 Bft) 97,87 %
12.09.2023 15:22 25,9 C 26,1 C 20,6 C 74 % 1012,7 hPa 0,0 l/m 2 min 0 min 760 W/m 6,4 km/h (2 Bft) 93,62 %
12.09.2023 15:24 26,0 C 26,1 C 20,6 C 74 % 1012,7 hPa 0,0 l/m 2 min 0 min 771 W/m 12,9 km/h (3 Bft) 97,83 %
12.09.2023 15:26 26,1 C 26,1 C 21,1 C 74 % 1012,7 hPa 0,0 l/m 2 min 0 min 744 W/m 6,4 km/h (2 Bft) 97,87 %
12.09.2023 15:28 26,0 C 25,6 C 20,6 C 73 % 1012,7 hPa 0,0 l/m 2 min 0 min 590 W/m 6,4 km/h (2 Bft) 95,74 %
12.09.2023 15:30 25,9 C 25,6 C 20,6 C 74 % 1012,7 hPa 0,0 l/m 0 min 0 min 210 W/m 3,2 km/h (1 Bft) 97,87 %
12.09.2023 15:32 25,8 C 25,0 C 20,6 C 74 % 1012,7 hPa 0,0 l/m 0 min 0 min 208 W/m 12,9 km/h (3 Bft) 95,74 %
12.09.2023 15:34 25,7 C 25,0 C 20,6 C 75 % 1012,7 hPa 0,0 l/m 0 min 0 min 241 W/m 3,2 km/h (1 Bft) 97,87 %
12.09.2023 15:36 25,6 C 25,0 C 20,6 C 75 % 1012,7 hPa 0,0 l/m 2 min 0 min 454 W/m 3,2 km/h (1 Bft) 91,30 %
12.09.2023 15:38 25,6 C 25,0 C 20,6 C 75 % 1012,7 hPa 0,0 l/m 2 min 0 min 677 W/m 6,4 km/h (2 Bft) 97,87 %
12.09.2023 15:40 25,6 C 25,6 C 20,6 C 75 % 1012,7 hPa 0,0 l/m 2 min 0 min 348 W/m 6,4 km/h (2 Bft) 93,62 %
12.09.2023 15:42 25,6 C 25,6 C 20,6 C 76 % 1012,6 hPa 0,0 l/m 0 min 0 min 223 W/m 6,4 km/h (2 Bft) 95,74 %
12.09.2023 15:44 25,6 C 25,6 C 20,6 C 76 % 1012,6 hPa 0,0 l/m 0 min 0 min 237 W/m 9,7 km/h (2 Bft) 97,87 %
12.09.2023 15:46 25,5 C 25,6 C 20,6 C 75 % 1012,6 hPa 0,0 l/m 2 min 0 min 285 W/m 6,4 km/h (2 Bft) 95,74 %
12.09.2023 15:48 25,6 C 25,6 C 20,6 C 76 % 1012,6 hPa 0,0 l/m 2 min 0 min 646 W/m 3,2 km/h (1 Bft) 93,62 %
12.09.2023 15:50 25,6 C 26,1 C 20,6 C 76 % 1012,6 hPa 0,0 l/m 2 min 0 min 679 W/m 9,7 km/h (2 Bft) 95,65 %
12.09.2023 15:52 25,6 C 26,1 C 20,6 C 75 % 1012,6 hPa 0,0 l/m 2 min 0 min 664 W/m 9,7 km/h (2 Bft) 93,62 %
12.09.2023 15:54 25,7 C 26,1 C 20,6 C 75 % 1012,6 hPa 0,0 l/m 2 min 0 min 630 W/m 6,4 km/h (2 Bft) 93,62 %
12.09.2023 15:56 25,7 C 26,1 C 20,6 C 75 % 1012,6 hPa 0,0 l/m 2 min 0 min 602 W/m 6,4 km/h (2 Bft) 93,62 %
12.09.2023 15:58 25,7 C 26,1 C 20,6 C 75 % 1012,6 hPa 0,0 l/m 2 min 0 min 587 W/m 6,4 km/h (2 Bft) 97,87 %
12.09.2023 16:00 25,7 C 26,1 C 20,6 C 75 % 1012,6 hPa 0,0 l/m 2 min 0 min 479 W/m 3,2 km/h (1 Bft) 93,62 %
12.09.2023 16:02 25,8 C 25,6 C 20,6 C 75 % 1012,5 hPa 0,0 l/m 2 min 0 min 369 W/m 6,4 km/h (2 Bft) 97,83 %
12.09.2023 16:04 25,8 C 25,6 C 20,6 C 74 % 1012,6 hPa 0,0 l/m 2 min 0 min 297 W/m 9,7 km/h (2 Bft) 100,00 %
12.09.2023 16:06 25,7 C 25,0 C 20,6 C 74 % 1012,6 hPa 0,0 l/m 0 min 0 min 178 W/m 9,7 km/h (2 Bft) 95,65 %
12.09.2023 16:08 25,7 C 25,0 C 20,6 C 74 % 1012,6 hPa 0,0 l/m 0 min 0 min 204 W/m 6,4 km/h (2 Bft) 95,74 %
12.09.2023 16:10 25,7 C 25,6 C 20,6 C 75 % 1012,6 hPa 0,0 l/m 2 min 0 min 336 W/m 9,7 km/h (2 Bft) 97,87 %
12.09.2023 16:12 25,7 C 25,6 C 20,6 C 74 % 1012,6 hPa 0,0 l/m 2 min 0 min 576 W/m 9,7 km/h (2 Bft) 91,89 %
12.09.2023 16:14 25,8 C 25,6 C 21,1 C 74 % 1012,6 hPa 0,0 l/m 2 min 0 min 562 W/m 16,1 km/h (3 Bft) 97,87 %
12.09.2023 16:16 25,8 C 25,6 C 21,1 C 73 % 1012,6 hPa 0,0 l/m 2 min 0 min 556 W/m 12,9 km/h (3 Bft) 95,74 %
12.09.2023 16:18 25,8 C 25,6 C 20,6 C 73 % 1012,5 hPa 0,0 l/m 2 min 0 min 565 W/m 16,1 km/h (3 Bft) 95,65 %
12.09.2023 16:20 25,8 C 25,6 C 20,6 C 73 % 1012,5 hPa 0,0 l/m 2 min 0 min 579 W/m 12,9 km/h (3 Bft) 97,87 %
12.09.2023 16:22 25,8 C 25,6 C 21,1 C 74 % 1012,5 hPa 0,0 l/m 2 min 0 min 592 W/m 9,7 km/h (2 Bft) 97,87 %
12.09.2023 16:24 25,8 C 25,6 C 21,1 C 74 % 1012,4 hPa 0,0 l/m 2 min 0 min 593 W/m 9,7 km/h (2 Bft) 95,74 %
12.09.2023 16:26 25,8 C 25,6 C 21,1 C 74 % 1012,4 hPa 0,0 l/m 2 min 0 min 561 W/m 19,3 km/h (3 Bft) 95,74 %
12.09.2023 16:28 25,9 C 25,6 C 21,1 C 73 % 1012,4 hPa 0,0 l/m 2 min 0 min 566 W/m 16,1 km/h (3 Bft) 97,87 %
12.09.2023 16:30 25,9 C 25,6 C 21,1 C 73 % 1012,4 hPa 0,0 l/m 2 min 0 min 552 W/m 6,4 km/h (2 Bft) 95,74 %
12.09.2023 16:32 25,9 C 26,1 C 21,1 C 73 % 1012,4 hPa 0,0 l/m 2 min 0 min 546 W/m 6,4 km/h (2 Bft) 97,83 %
12.09.2023 16:34 25,9 C 25,6 C 21,1 C 72 % 1012,4 hPa 0,0 l/m 2 min 0 min 537 W/m 12,9 km/h (3 Bft) 97,87 %
12.09.2023 16:36 26,0 C 26,1 C 21,1 C 72 % 1012,3 hPa 0,0 l/m 2 min 0 min 567 W/m 12,9 km/h (3 Bft) 95,74 %
12.09.2023 16:38 26,0 C 26,1 C 21,1 C 72 % 1012,3 hPa 0,0 l/m 2 min 0 min 588 W/m 12,9 km/h (3 Bft) 95,74 %
12.09.2023 16:40 26,0 C 26,1 C 21,1 C 72 % 1012,3 hPa 0,0 l/m 2 min 0 min 567 W/m 6,4 km/h (2 Bft) 97,87 %
12.09.2023 16:42 26,1 C 26,7 C 21,7 C 72 % 1012,3 hPa 0,0 l/m 2 min 0 min 546 W/m 9,7 km/h (2 Bft) 97,87 %
12.09.2023 16:44 26,1 C 26,7 C 21,7 C 73 % 1012,3 hPa 0,0 l/m 2 min 0 min 519 W/m 3,2 km/h (1 Bft) 100,00 %
12.09.2023 16:46 26,1 C 26,1 C 21,7 C 73 % 1012,3 hPa 0,0 l/m 2 min 0 min 545 W/m 6,4 km/h (2 Bft) 100,00 %
12.09.2023 16:48 26,1 C 26,1 C 21,7 C 73 % 1012,3 hPa 0,0 l/m 2 min 0 min 529 W/m 12,9 km/h (3 Bft) 97,87 %
12.09.2023 16:50 26,1 C 26,1 C 21,7 C 72 % 1012,3 hPa 0,0 l/m 2 min 0 min 507 W/m 12,9 km/h (3 Bft) 97,87 %
12.09.2023 16:52 26,2 C 26,1 C 21,7 C 72 % 1012,3 hPa 0,0 l/m 2 min 0 min 507 W/m 12,9 km/h (3 Bft) 97,87 %
12.09.2023 16:54 26,2 C 26,7 C 21,7 C 72 % 1012,3 hPa 0,0 l/m 2 min 0 min 538 W/m 6,4 km/h (2 Bft) 97,87 %
12.09.2023 16:56 26,2 C 26,1 C 21,7 C 72 % 1012,2 hPa 0,0 l/m 2 min 0 min 482 W/m 12,9 km/h (3 Bft) 100,00 %
12.09.2023 16:58 26,2 C 26,7 C 21,7 C 72 % 1012,2 hPa 0,0 l/m 2 min 0 min 500 W/m 6,4 km/h (2 Bft) 100,00 %
12.09.2023 17:00 26,2 C 26,7 C 21,7 C 71 % 1012,2 hPa 0,0 l/m 2 min 0 min 479 W/m 19,3 km/h (3 Bft) 97,87 %
12.09.2023 17:02 26,2 C 26,7 C 21,7 C 71 % 1012,1 hPa 0,0 l/m 2 min 0 min 453 W/m 9,7 km/h (2 Bft) 100,00 %
12.09.2023 17:04 26,2 C 26,1 C 21,1 C 71 % 1012,1 hPa 0,0 l/m 2 min 0 min 486 W/m 9,7 km/h (2 Bft) 100,00 %
12.09.2023 17:06 26,2 C 26,1 C 21,1 C 71 % 1012,1 hPa 0,0 l/m 2 min 0 min 402 W/m 9,7 km/h (2 Bft) 97,87 %
12.09.2023 17:08 26,2 C 26,1 C 21,1 C 72 % 1012,1 hPa 0,0 l/m 2 min 0 min 375 W/m 6,4 km/h (2 Bft) 100,00 %
12.09.2023 17:10 26,2 C 26,1 C 21,1 C 72 % 1012,1 hPa 0,0 l/m 2 min 0 min 384 W/m 12,9 km/h (3 Bft) 97,87 %
12.09.2023 17:12 26,2 C 26,1 C 21,1 C 72 % 1012,1 hPa 0,0 l/m 2 min 0 min 230 W/m 19,3 km/h (3 Bft) 95,74 %
12.09.2023 17:14 26,1 C 25,6 C 21,1 C 70 % 1012,1 hPa 0,0 l/m 0 min 0 min 181 W/m 12,9 km/h (3 Bft) 100,00 %
12.09.2023 17:16 26,0 C 25,6 C 20,6 C 70 % 1012,1 hPa 0,0 l/m 2 min 0 min 202 W/m 9,7 km/h (2 Bft) 97,87 %
12.09.2023 17:18 25,9 C 25,6 C 20,6 C 70 % 1012,1 hPa 0,0 l/m 0 min 0 min 188 W/m 12,9 km/h (3 Bft) 95,74 %
12.09.2023 17:20 25,9 C 25,0 C 20,6 C 70 % 1012,0 hPa 0,0 l/m 0 min 0 min 184 W/m 16,1 km/h (3 Bft) 95,74 %
12.09.2023 17:22 25,8 C 25,0 C 20,6 C 70 % 1012,0 hPa 0,0 l/m 0 min 0 min 182 W/m 6,4 km/h (2 Bft) 95,74 %
12.09.2023 17:24 25,8 C 25,6 C 20,6 C 71 % 1011,9 hPa 0,0 l/m 2 min 0 min 213 W/m 9,7 km/h (2 Bft) 93,48 %
12.09.2023 17:26 25,8 C 25,6 C 20,6 C 71 % 1012,0 hPa 0,0 l/m 2 min 0 min 329 W/m 12,9 km/h (3 Bft) 97,87 %
12.09.2023 17:28 25,8 C 26,1 C 21,1 C 71 % 1012,0 hPa 0,0 l/m 2 min 0 min 376 W/m 9,7 km/h (2 Bft) 93,62 %
12.09.2023 17:30 25,8 C 26,7 C 21,1 C 71 % 1012,1 hPa 0,0 l/m 2 min 0 min 350 W/m 6,4 km/h (2 Bft) 95,74 %
12.09.2023 17:32 25,8 C 26,7 C 21,1 C 72 % 1012,1 hPa 0,0 l/m 2 min 0 min 315 W/m 6,4 km/h (2 Bft) 95,74 %
12.09.2023 17:34 25,7 C 26,7 C 21,1 C 72 % 1012,1 hPa 0,0 l/m 2 min 0 min 345 W/m 3,2 km/h (1 Bft) 95,74 %
12.09.2023 17:36 25,7 C 26,7 C 21,1 C 72 % 1012,1 hPa 0,0 l/m 2 min 0 min 375 W/m 9,7 km/h (2 Bft) 89,36 %
12.09.2023 17:38 25,7 C 27,2 C 21,1 C 72 % 1012,1 hPa 0,0 l/m 2 min 0 min 317 W/m 3,2 km/h (1 Bft) 95,65 %
12.09.2023 17:40 25,7 C 27,2 C 21,1 C 72 % 1012,1 hPa 0,0 l/m 2 min 0 min 328 W/m 3,2 km/h (1 Bft) 95,74 %
12.09.2023 17:42 25,7 C 27,2 C 21,1 C 72 % 1012,1 hPa 0,0 l/m 2 min 0 min 307 W/m 6,4 km/h (2 Bft) 93,62 %
12.09.2023 17:44 25,8 C 27,2 C 21,1 C 73 % 1012,1 hPa 0,0 l/m 2 min 0 min 280 W/m 9,7 km/h (2 Bft) 95,74 %
12.09.2023 17:46 25,8 C 27,2 C 21,1 C 72 % 1012,1 hPa 0,0 l/m 2 min 0 min 328 W/m 16,1 km/h (3 Bft) 93,62 %
12.09.2023 17:48 25,8 C 27,2 C 21,7 C 72 % 1012,1 hPa 0,0 l/m 2 min 0 min 333 W/m 9,7 km/h (2 Bft) 93,62 %
12.09.2023 17:50 25,8 C 27,8 C 21,7 C 73 % 1012,1 hPa 0,0 l/m 2 min 0 min 299 W/m 3,2 km/h (1 Bft) 97,87 %
12.09.2023 17:52 25,8 C 27,8 C 21,7 C 73 % 1012,1 hPa 0,0 l/m 2 min 0 min 274 W/m 9,7 km/h (2 Bft) 97,87 %
12.09.2023 17:54 25,9 C 27,2 C 21,7 C 72 % 1012,1 hPa 0,0 l/m 2 min 0 min 259 W/m 12,9 km/h (3 Bft) 93,48 %
12.09.2023 17:56 25,9 C 27,2 C 21,1 C 72 % 1012,0 hPa 0,0 l/m 2 min 0 min 219 W/m 9,7 km/h (2 Bft) 97,87 %
12.09.2023 17:58 25,9 C 26,7 C 21,1 C 73 % 1012,0 hPa 0,0 l/m 2 min 0 min 241 W/m 3,2 km/h (1 Bft) 97,56 %
12.09.2023 18:00 25,9 C 26,1 C 21,1 C 73 % 1011,9 hPa 0,0 l/m 2 min 0 min 234 W/m 6,4 km/h (2 Bft) 95,74 %
12.09.2023 18:02 25,8 C 26,1 C 21,1 C 73 % 1012,0 hPa 0,0 l/m 2 min 0 min 214 W/m 3,2 km/h (1 Bft) 97,87 %
12.09.2023 18:04 25,8 C 26,1 C 21,1 C 74 % 1012,0 hPa 0,0 l/m 2 min 0 min 177 W/m 6,4 km/h (2 Bft) 98,04 %
12.09.2023 18:08 25,6 C 25,0 C 20,6 C 74 % 1011,9 hPa 0,0 l/m 0 min 0 min 132 W/m 9,7 km/h (2 Bft) 97,03 %
12.09.2023 18:10 25,4 C 25,0 C 20,6 C 74 % 1011,9 hPa 0,0 l/m 0 min 0 min 116 W/m 9,7 km/h (2 Bft) 93,62 %
12.09.2023 18:12 25,3 C 24,4 C 20,6 C 74 % 1011,9 hPa 0,0 l/m 0 min 0 min 94 W/m 9,7 km/h (2 Bft) 97,87 %
12.09.2023 18:16 25,2 C 24,4 C 20,0 C 75 % 1011,9 hPa 0,0 l/m 0 min 0 min 72 W/m 6,4 km/h (2 Bft) 97,87 %
12.09.2023 18:18 25,1 C 23,9 C 20,0 C 75 % 1011,9 hPa 0,0 l/m 0 min 0 min 53 W/m 3,2 km/h (1 Bft) 97,87 %
12.09.2023 18:20 25,0 C 23,9 C 20,0 C 75 % 1011,9 hPa 0,0 l/m 0 min 0 min 47 W/m 0,0 km/h (0 Bft) 100,00 %
12.09.2023 18:22 24,9 C 23,9 C 20,0 C 75 % 1012,0 hPa 0,0 l/m 0 min 0 min 45 W/m 0,0 km/h (0 Bft) 95,74 %
12.09.2023 18:24 24,8 C 23,3 C 20,0 C 75 % 1012,0 hPa 0,0 l/m 0 min 0 min 44 W/m 0,0 km/h (0 Bft) 100,00 %
12.09.2023 18:26 24,7 C 23,3 C 19,4 C 75 % 1012,1 hPa 0,0 l/m 0 min 0 min 44 W/m 0,0 km/h (0 Bft) 100,00 %
12.09.2023 18:28 24,7 C 23,3 C 19,4 C 76 % 1012,1 hPa 0,0 l/m 0 min 0 min 43 W/m 0,0 km/h (0 Bft) 97,87 %
12.09.2023 18:30 24,7 C 23,3 C 19,4 C 77 % 1012,0 hPa 0,0 l/m 0 min 0 min 42 W/m 0,0 km/h (0 Bft) 97,87 %
12.09.2023 18:32 24,6 C 23,3 C 19,4 C 77 % 1012,0 hPa 0,0 l/m 0 min 0 min 42 W/m 0,0 km/h (0 Bft) 97,87 %
12.09.2023 18:34 24,6 C 23,3 C 19,4 C 77 % 1012,0 hPa 0,0 l/m 0 min 0 min 42 W/m 0,0 km/h (0 Bft) 97,83 %
12.09.2023 18:36 24,6 C 23,3 C 19,4 C 77 % 1012,0 hPa 0,0 l/m 0 min 0 min 40 W/m 0,0 km/h (0 Bft) 100,00 %
12.09.2023 18:38 24,4 C 23,3 C 19,4 C 77 % 1012,1 hPa 0,0 l/m 0 min 0 min 38 W/m 0,0 km/h (0 Bft) 100,00 %
12.09.2023 18:40 24,4 C 22,8 C 19,4 C 77 % 1012,1 hPa 0,0 l/m 0 min 0 min 37 W/m 0,0 km/h (0 Bft) 97,87 %
12.09.2023 18:42 24,4 C 23,3 C 19,4 C 78 % 1012,0 hPa 0,0 l/m 0 min 0 min 39 W/m 0,0 km/h (0 Bft) 97,87 %
12.09.2023 18:44 24,4 C 23,3 C 19,4 C 78 % 1012,0 hPa 0,0 l/m 0 min 0 min 40 W/m 0,0 km/h (0 Bft) 100,00 %
12.09.2023 18:46 24,4 C 23,3 C 19,4 C 78 % 1011,9 hPa 0,0 l/m 0 min 0 min 39 W/m 0,0 km/h (0 Bft) 97,87 %
12.09.2023 18:48 24,4 C 23,3 C 19,4 C 78 % 1011,9 hPa 0,0 l/m 0 min 0 min 37 W/m 0,0 km/h (0 Bft) 97,87 %
12.09.2023 18:50 24,4 C 23,3 C 18,9 C 78 % 1011,9 hPa 0,0 l/m 0 min 0 min 37 W/m 0,0 km/h (0 Bft) 97,83 %
12.09.2023 18:52 24,4 C 23,3 C 18,9 C 78 % 1011,8 hPa 0,0 l/m 0 min 0 min 37 W/m 0,0 km/h (0 Bft) 93,62 %
12.09.2023 18:54 24,4 C 23,3 C 18,9 C 78 % 1011,8 hPa 0,0 l/m 0 min 0 min 34 W/m 0,0 km/h (0 Bft) 97,87 %
12.09.2023 18:56 24,4 C 23,3 C 18,9 C 78 % 1011,9 hPa 0,0 l/m 0 min 0 min 31 W/m 0,0 km/h (0 Bft) 97,87 %
12.09.2023 18:58 24,4 C 23,3 C 18,9 C 77 % 1011,9 hPa 0,0 l/m 0 min 0 min 28 W/m 0,0 km/h (0 Bft) 93,48 %
12.09.2023 19:00 24,4 C 23,3 C 18,9 C 77 % 1011,9 hPa 0,0 l/m 0 min 0 min 25 W/m 0,0 km/h (0 Bft) 97,87 %
12.09.2023 19:02 24,3 C 23,3 C 18,9 C 77 % 1011,9 hPa 0,0 l/m 0 min 0 min 22 W/m 0,0 km/h (0 Bft) 97,87 %
12.09.2023 19:04 24,3 C 23,3 C 18,9 C 77 % 1012,0 hPa 0,0 l/m 0 min 0 min 20 W/m 0,0 km/h (0 Bft) 95,83 %
12.09.2023 19:06 24,3 C 23,3 C 18,9 C 77 % 1011,9 hPa 0,0 l/m 0 min 0 min 18 W/m 0,0 km/h (0 Bft) 97,83 %
12.09.2023 19:08 24,3 C 23,3 C 18,9 C 78 % 1012,0 hPa 0,0 l/m 0 min 0 min 17 W/m 0,0 km/h (0 Bft) 97,87 %
12.09.2023 19:10 24,3 C 23,3 C 18,9 C 78 % 1012,0 hPa 0,0 l/m 0 min 0 min 15 W/m 0,0 km/h (0 Bft) 95,74 %
12.09.2023 19:12 24,3 C 23,3 C 18,9 C 78 % 1012,1 hPa 0,0 l/m 0 min 0 min 12 W/m 0,0 km/h (0 Bft) 97,87 %
12.09.2023 19:14 24,3 C 23,3 C 18,9 C 78 % 1012,1 hPa 0,0 l/m 0 min 0 min 11 W/m 0,0 km/h (0 Bft) 93,62 %
12.09.2023 19:16 24,2 C 23,3 C 18,9 C 78 % 1012,2 hPa 0,0 l/m 0 min 0 min 11 W/m 0,0 km/h (0 Bft) 93,62 %
12.09.2023 19:18 24,2 C 23,3 C 18,9 C 78 % 1012,2 hPa 0,0 l/m 0 min 0 min 9 W/m 0,0 km/h (0 Bft) 95,74 %
12.09.2023 19:20 24,2 C 23,3 C 18,9 C 78 % 1012,3 hPa 0,0 l/m 0 min 0 min 8 W/m 0,0 km/h (0 Bft) 95,65 %
12.09.2023 19:22 24,2 C 23,3 C 18,9 C 79 % 1012,3 hPa 0,0 l/m 0 min 0 min 6 W/m 0,0 km/h (0 Bft) 93,62 %
12.09.2023 19:24 24,2 C 23,3 C 18,9 C 79 % 1012,3 hPa 0,0 l/m 0 min 0 min 5 W/m 0,0 km/h (0 Bft) 95,74 %
12.09.2023 19:26 24,2 C 23,3 C 18,3 C 80 % 1012,4 hPa 0,0 l/m 0 min 0 min 2 W/m 0,0 km/h (0 Bft) 95,74 %
12.09.2023 19:28 24,2 C 23,3 C 18,3 C 80 % 1012,4 hPa 0,0 l/m 0 min 0 min 0 W/m 0,0 km/h (0 Bft) 93,62 %
12.09.2023 19:30 24,2 C 22,8 C 18,3 C 79 % 1012,4 hPa 0,0 l/m 0 min 0 min 0 W/m 0,0 km/h (0 Bft) 95,74 %
12.09.2023 19:32 24,1 C 22,8 C 18,3 C 80 % 1012,4 hPa 0,0 l/m 0 min 0 min 0 W/m 0,0 km/h (0 Bft) 95,74 %
12.09.2023 19:34 24,1 C 22,8 C 18,3 C 80 % 1012,4 hPa 0,0 l/m 0 min 0 min 0 W/m 0,0 km/h (0 Bft) 93,48 %
12.09.2023 19:36 24,1 C 22,8 C 18,3 C 80 % 1012,4 hPa 0,0 l/m 0 min 0 min 0 W/m 0,0 km/h (0 Bft) 94,87 %
12.09.2023 19:38 24,1 C 22,8 C 18,3 C 80 % 1012,4 hPa 0,0 l/m 0 min 0 min 0 W/m 0,0 km/h (0 Bft) 95,65 %
12.09.2023 19:40 24,1 C 22,8 C 18,3 C 80 % 1012,5 hPa 0,0 l/m 0 min 0 min 0 W/m 0,0 km/h (0 Bft) 93,62 %
12.09.2023 19:42 24,0 C 22,8 C 18,3 C 80 % 1012,5 hPa 0,0 l/m 0 min 0 min 0 W/m 0,0 km/h (0 Bft) 95,74 %
12.09.2023 19:44 23,9 C 22,8 C 18,3 C 80 % 1012,5 hPa 0,0 l/m 0 min 0 min 0 W/m 0,0 km/h (0 Bft) 93,62 %
12.09.2023 19:46 23,9 C 22,8 C 18,3 C 80 % 1012,6 hPa 0,0 l/m 0 min 0 min 0 W/m 0,0 km/h (0 Bft) 95,74 %
12.09.2023 19:48 23,9 C 22,8 C 18,3 C 80 % 1012,6 hPa 0,0 l/m 0 min 0 min 0 W/m 0,0 km/h (0 Bft) 97,87 %
12.09.2023 19:50 23,9 C 22,8 C 18,3 C 80 % 1012,6 hPa 0,0 l/m 0 min 0 min 0 W/m 0,0 km/h (0 Bft) 100,00 %
12.09.2023 19:56 23,9 C 22,2 C 18,3 C 82 % 1012,6 hPa 0,0 l/m 0 min 0 min 0 W/m 0,0 km/h (0 Bft) 88,24 %
12.09.2023 19:57 23,9 C 22,2 C 18,3 C 82 % 1012,6 hPa 0,0 l/m 0 min 0 min 0 W/m 0,0 km/h (0 Bft) 95,65 %
12.09.2023 20:00 23,8 C 22,2 C 18,3 C 83 % 1012,7 hPa 0,0 l/m 0 min 0 min 0 W/m 0,0 km/h (0 Bft) 94,92 %
12.09.2023 20:02 23,8 C 22,2 C 17,2 C 83 % 1012,8 hPa 0,2 l/m 0 min 0 min 0 W/m 0,0 km/h (0 Bft) 98,15 %
12.09.2023 20:04 23,7 C 22,2 C 16,7 C 83 % 1012,8 hPa 0,0 l/m 0 min 0 min 0 W/m 0,0 km/h (0 Bft) 100,00 %
12.09.2023 20:06 23,7 C 21,7 C 16,7 C 84 % 1012,9 hPa 0,0 l/m 0 min 0 min 0 W/m 0,0 km/h (0 Bft) 97,83 %
12.09.2023 20:08 23,6 C 21,7 C 16,7 C 84 % 1012,9 hPa 0,0 l/m 0 min 0 min 0 W/m 0,0 km/h (0 Bft) 100,00 %
12.09.2023 20:10 23,6 C 21,7 C 16,7 C 85 % 1013,0 hPa 0,0 l/m 0 min 0 min 0 W/m 0,0 km/h (0 Bft) 97,87 %
12.09.2023 20:12 23,5 C 21,7 C 16,7 C 86 % 1013,0 hPa 0,2 l/m 0 min 0 min 0 W/m 0,0 km/h (0 Bft) 95,74 %
12.09.2023 20:14 23,4 C 21,1 C 16,7 C 86 % 1013,0 hPa 0,2 l/m 0 min 0 min 0 W/m 0,0 km/h (0 Bft) 93,62 %
12.09.2023 20:16 23,4 C 21,1 C 16,7 C 86 % 1013,0 hPa 0,2 l/m 0 min 0 min 0 W/m 0,0 km/h (0 Bft) 97,87 %
12.09.2023 20:18 23,3 C 21,1 C 16,7 C 87 % 1013,0 hPa 0,2 l/m 0 min 0 min 0 W/m 0,0 km/h (0 Bft) 97,87 %
12.09.2023 20:20 23,2 C 21,1 C 16,7 C 87 % 1013,1 hPa 0,0 l/m 0 min 0 min 0 W/m 0,0 km/h (0 Bft) 97,83 %
12.09.2023 20:22 23,2 C 21,1 C 16,7 C 87 % 1013,1 hPa 0,2 l/m 0 min 0 min 0 W/m 0,0 km/h (0 Bft) 97,87 %
12.09.2023 20:24 23,2 C 21,1 C 16,7 C 88 % 1013,1 hPa 0,2 l/m 0 min 0 min 0 W/m 0,0 km/h (0 Bft) 97,87 %
12.09.2023 20:26 23,1 C 20,6 C 16,1 C 88 % 1013,0 hPa 0,0 l/m 0 min 0 min 0 W/m 0,0 km/h (0 Bft) 97,87 %
12.09.2023 20:28 23,1 C 20,6 C 16,1 C 89 % 1013,0 hPa 0,2 l/m 0 min 0 min 0 W/m 0,0 km/h (0 Bft) 97,87 %
12.09.2023 20:30 23,1 C 20,6 C 16,1 C 89 % 1013,0 hPa 0,2 l/m 0 min 0 min 0 W/m 0,0 km/h (0 Bft) 95,74 %
12.09.2023 20:32 23,0 C 20,6 C 16,1 C 89 % 1013,0 hPa 0,0 l/m 0 min 0 min 0 W/m 0,0 km/h (0 Bft) 95,74 %
12.09.2023 20:34 22,9 C 20,6 C 16,1 C 90 % 1013,0 hPa 0,2 l/m 0 min 0 min 0 W/m 0,0 km/h (0 Bft) 95,65 %
12.09.2023 20:36 22,9 C 20,6 C 16,1 C 90 % 1013,0 hPa 0,0 l/m 0 min 0 min 0 W/m 0,0 km/h (0 Bft) 97,87 %
12.09.2023 20:38 22,8 C 20,6 C 16,1 C 90 % 1013,0 hPa 0,0 l/m 0 min 0 min 0 W/m 0,0 km/h (0 Bft) 97,87 %
12.09.2023 20:40 22,8 C 20,6 C 16,1 C 90 % 1012,9 hPa 0,2 l/m 0 min 0 min 0 W/m 0,0 km/h (0 Bft) 97,87 %
12.09.2023 20:42 22,7 C 20,6 C 16,1 C 90 % 1012,9 hPa 0,0 l/m 0 min 0 min 0 W/m 0,0 km/h (0 Bft) 95,74 %
12.09.2023 20:44 22,6 C 20,6 C 16,1 C 91 % 1012,9 hPa 0,0 l/m 0 min 0 min 0 W/m 0,0 km/h (0 Bft) 95,74 %
12.09.2023 20:46 22,6 C 20,6 C 16,1 C 90 % 1012,9 hPa 0,2 l/m 0 min 0 min 0 W/m 0,0 km/h (0 Bft) 95,74 %
12.09.2023 20:48 22,5 C 20,6 C 16,1 C 91 % 1012,9 hPa 0,0 l/m 0 min 0 min 0 W/m 0,0 km/h (0 Bft) 97,83 %
12.09.2023 20:50 22,4 C 20,6 C 16,1 C 91 % 1012,9 hPa 0,0 l/m 0 min 0 min 0 W/m 0,0 km/h (0 Bft) 95,74 %
12.09.2023 20:52 22,3 C 20,6 C 16,1 C 91 % 1012,9 hPa 0,2 l/m 0 min 0 min 0 W/m 0,0 km/h (0 Bft) 95,74 %
12.09.2023 20:54 22,3 C 20,6 C 16,1 C 91 % 1013,0 hPa 0,0 l/m 0 min 0 min 0 W/m 0,0 km/h (0 Bft) 97,87 %
12.09.2023 20:56 22,2 C 20,6 C 16,1 C 92 % 1013,0 hPa 0,0 l/m 0 min 0 min 0 W/m 0,0 km/h (0 Bft) 94,12 %
12.09.2023 20:58 22,2 C 20,6 C 16,1 C 92 % 1013,0 hPa 0,2 l/m 0 min 0 min 0 W/m 0,0 km/h (0 Bft) 100,00 %
12.09.2023 21:00 22,2 C 20,0 C 16,1 C 92 % 1013,0 hPa 0,0 l/m 0 min 0 min 0 W/m 0,0 km/h (0 Bft) 100,00 %
12.09.2023 21:02 22,1 C 20,0 C 16,1 C 92 % 1013,0 hPa 0,2 l/m 0 min 0 min 0 W/m 0,0 km/h (0 Bft) 97,87 %
12.09.2023 21:04 22,1 C 20,0 C 16,1 C 92 % 1013,1 hPa 0,0 l/m 0 min 0 min 0 W/m 0,0 km/h (0 Bft) 95,92 %
12.09.2023 21:06 22,0 C 20,0 C 16,1 C 92 % 1013,0 hPa 0,2 l/m 0 min 0 min 0 W/m 0,0 km/h (0 Bft) 100,00 %
12.09.2023 21:08 21,9 C 20,0 C 16,1 C 92 % 1013,1 hPa 0,0 l/m 0 min 0 min 0 W/m 0,0 km/h (0 Bft) 97,83 %
12.09.2023 21:10 21,8 C 20,0 C 16,1 C 92 % 1013,1 hPa 0,2 l/m 0 min 0 min 0 W/m 0,0 km/h (0 Bft) 97,87 %
12.09.2023 21:12 21,8 C 20,0 C 16,1 C 92 % 1013,1 hPa 0,0 l/m 0 min 0 min 0 W/m 0,0 km/h (0 Bft) 95,74 %
12.09.2023 21:14 21,8 C 20,0 C 16,1 C 93 % 1013,1 hPa 0,2 l/m 0 min 0 min 0 W/m 0,0 km/h (0 Bft) 98,00 %
12.09.2023 21:16 21,7 C 20,0 C 16,1 C 93 % 1013,1 hPa 0,0 l/m 0 min 0 min 0 W/m 0,0 km/h (0 Bft) 95,74 %
12.09.2023 21:18 21,8 C 20,0 C 16,1 C 93 % 1013,1 hPa 0,2 l/m 0 min 0 min 0 W/m 0,0 km/h (0 Bft) 97,87 %
12.09.2023 21:20 21,7 C 20,0 C 16,1 C 93 % 1013,1 hPa 0,0 l/m 0 min 2 min 0 W/m 0,0 km/h (0 Bft) 97,87 %
12.09.2023 21:22 21,7 C 20,0 C 16,1 C 93 % 1013,1 hPa 0,0 l/m 0 min 2 min 0 W/m 0,0 km/h (0 Bft) 97,83 %
12.09.2023 21:24 21,7 C 20,0 C 16,1 C 94 % 1013,1 hPa 0,2 l/m 0 min 2 min 0 W/m 0,0 km/h (0 Bft) 97,14 %
12.09.2023 21:26 21,7 C 20,0 C 16,1 C 94 % 1013,1 hPa 0,0 l/m 0 min 2 min 0 W/m 0,0 km/h (0 Bft) 97,87 %
12.09.2023 21:28 21,6 C 20,0 C 16,1 C 94 % 1013,1 hPa 0,0 l/m 0 min 2 min 0 W/m 0,0 km/h (0 Bft) 95,74 %
12.09.2023 21:30 21,6 C 20,0 C 16,1 C 94 % 1013,1 hPa 0,2 l/m 0 min 2 min 0 W/m 0,0 km/h (0 Bft) 97,87 %
12.09.2023 21:32 21,6 C 20,0 C 16,1 C 94 % 1013,1 hPa 0,0 l/m 0 min 2 min 0 W/m 0,0 km/h (0 Bft) 97,87 %
12.09.2023 21:34 21,6 C 19,4 C 16,1 C 94 % 1013,1 hPa 0,2 l/m 0 min 2 min 0 W/m 0,0 km/h (0 Bft) 97,87 %
12.09.2023 21:36 21,6 C 20,0 C 16,1 C 94 % 1013,1 hPa 0,0 l/m 0 min 2 min 0 W/m 0,0 km/h (0 Bft) 95,74 %
12.09.2023 21:38 21,5 C 19,4 C 16,1 C 94 % 1013,0 hPa 0,0 l/m 0 min 2 min 0 W/m 0,0 km/h (0 Bft) 97,87 %
12.09.2023 21:40 21,5 C 19,4 C 16,1 C 95 % 1013,0 hPa 0,2 l/m 0 min 2 min 0 W/m 0,0 km/h (0 Bft) 100,00 %
12.09.2023 21:42 21,4 C 19,4 C 16,1 C 94 % 1013,0 hPa 0,0 l/m 0 min 2 min 0 W/m 0,0 km/h (0 Bft) 100,00 %
12.09.2023 21:44 21,4 C 19,4 C 16,1 C 95 % 1012,9 hPa 0,2 l/m 0 min 2 min 0 W/m 0,0 km/h (0 Bft) 95,74 %
12.09.2023 21:46 21,4 C 19,4 C 16,1 C 95 % 1012,8 hPa 0,0 l/m 0 min 2 min 0 W/m 0,0 km/h (0 Bft) 97,87 %
12.09.2023 21:48 21,4 C 19,4 C 16,1 C 95 % 1012,8 hPa 0,2 l/m 0 min 2 min 0 W/m 0,0 km/h (0 Bft) 97,87 %
12.09.2023 21:50 21,3 C 19,4 C 16,1 C 95 % 1012,7 hPa 0,0 l/m 0 min 2 min 0 W/m 0,0 km/h (0 Bft) 97,87 %
12.09.2023 21:52 21,3 C 19,4 C 16,1 C 95 % 1012,6 hPa 0,2 l/m 0 min 2 min 0 W/m 0,0 km/h (0 Bft) 95,74 %
12.09.2023 21:54 21,3 C 19,4 C 16,1 C 95 % 1012,6 hPa 0,0 l/m 0 min 2 min 0 W/m 0,0 km/h (0 Bft) 97,83 %
12.09.2023 21:56 21,2 C 19,4 C 15,6 C 95 % 1012,4 hPa 0,2 l/m 0 min 2 min 0 W/m 0,0 km/h (0 Bft) 96,00 %
12.09.2023 21:58 21,1 C 18,9 C 15,6 C 95 % 1012,4 hPa 0,0 l/m 0 min 2 min 0 W/m 0,0 km/h (0 Bft) 97,87 %
12.09.2023 22:00 21,1 C 18,9 C 15,6 C 95 % 1012,3 hPa 0,2 l/m 0 min 2 min 0 W/m 0,0 km/h (0 Bft) 97,87 %
12.09.2023 22:02 21,0 C 18,9 C 15,6 C 95 % 1012,3 hPa 0,0 l/m 0 min 2 min 0 W/m 0,0 km/h (0 Bft) 97,87 %
12.09.2023 22:04 20,9 C 18,9 C 15,6 C 95 % 1012,2 hPa 0,0 l/m 0 min 2 min 0 W/m 0,0 km/h (0 Bft) 97,67 %
12.09.2023 22:06 20,9 C 18,9 C 15,6 C 95 % 1012,2 hPa 0,2 l/m 0 min 2 min 0 W/m 0,0 km/h (0 Bft) 97,87 %
12.09.2023 22:08 20,9 C 18,9 C 15,6 C 95 % 1012,1 hPa 0,0 l/m 0 min 2 min 0 W/m 0,0 km/h (0 Bft) 93,62 %
12.09.2023 22:10 20,8 C 18,9 C 15,6 C 95 % 1012,1 hPa 0,0 l/m 0 min 2 min 0 W/m 0,0 km/h (0 Bft) 97,83 %
12.09.2023 22:12 20,8 C 18,9 C 15,6 C 95 % 1012,1 hPa 0,2 l/m 0 min 2 min 0 W/m 0,0 km/h (0 Bft) 93,62 %
12.09.2023 22:14 20,7 C 18,9 C 15,6 C 95 % 1012,1 hPa 0,0 l/m 0 min 2 min 0 W/m 0,0 km/h (0 Bft) 97,87 %
12.09.2023 22:16 20,7 C 18,9 C 15,6 C 95 % 1012,1 hPa 0,0 l/m 0 min 2 min 0 W/m 0,0 km/h (0 Bft) 97,87 %
12.09.2023 22:18 20,6 C 18,9 C 15,6 C 95 % 1012,2 hPa 0,0 l/m 0 min 2 min 0 W/m 0,0 km/h (0 Bft) 95,74 %
12.09.2023 22:20 20,6 C 18,9 C 15,6 C 95 % 1012,2 hPa 0,0 l/m 0 min 2 min 0 W/m 0,0 km/h (0 Bft) 97,87 %
12.09.2023 22:22 20,6 C 18,9 C 15,6 C 95 % 1012,3 hPa 0,0 l/m 0 min 2 min 0 W/m 0,0 km/h (0 Bft) 97,87 %
12.09.2023 22:24 20,6 C 18,9 C 15,6 C 95 % 1012,4 hPa 0,0 l/m 0 min 2 min 0 W/m 0,0 km/h (0 Bft) 97,83 %
12.09.2023 22:26 20,5 C 18,9 C 15,6 C 95 % 1012,5 hPa 0,0 l/m 0 min 0 min 0 W/m 0,0 km/h (0 Bft) 98,15 %
12.09.2023 22:28 20,4 C 18,9 C 15,0 C 95 % 1012,6 hPa 0,0 l/m 0 min 0 min 0 W/m 0,0 km/h (0 Bft) 97,87 %
12.09.2023 22:30 20,4 C 18,9 C 15,0 C 95 % 1012,6 hPa 0,0 l/m 0 min 0 min 0 W/m 0,0 km/h (0 Bft) 96,00 %
12.09.2023 22:32 20,4 C 18,9 C 15,0 C 95 % 1012,7 hPa 0,0 l/m 0 min 0 min 0 W/m 0,0 km/h (0 Bft) 97,83 %
12.09.2023 22:34 20,3 C 18,9 C 15,6 C 95 % 1012,8 hPa 0,0 l/m 0 min 0 min 0 W/m 0,0 km/h (0 Bft) 94,74 %
12.09.2023 22:36 20,3 C 18,9 C 15,6 C 96 % 1012,8 hPa 0,0 l/m 0 min 0 min 0 W/m 0,0 km/h (0 Bft) 100,00 %
12.09.2023 22:38 20,3 C 18,9 C 15,6 C 96 % 1012,8 hPa 0,0 l/m 0 min 0 min 0 W/m 0,0 km/h (0 Bft) 100,00 %
12.09.2023 22:40 20,3 C 18,9 C 15,6 C 96 % 1012,8 hPa 0,0 l/m 0 min 0 min 0 W/m 0,0 km/h (0 Bft) 97,87 %
12.09.2023 22:42 20,3 C 18,9 C 15,6 C 96 % 1012,8 hPa 0,0 l/m 0 min 0 min 0 W/m 0,0 km/h (0 Bft) 100,00 %
12.09.2023 22:44 20,3 C 18,9 C 15,6 C 96 % 1012,8 hPa 0,0 l/m 0 min 0 min 0 W/m 0,0 km/h (0 Bft) 100,00 %
12.09.2023 22:46 20,3 C 18,9 C 15,6 C 96 % 1012,7 hPa 0,0 l/m 0 min 0 min 0 W/m 0,0 km/h (0 Bft) 100,00 %
12.09.2023 22:48 20,3 C 18,9 C 15,6 C 96 % 1012,7 hPa 0,0 l/m 0 min 0 min 0 W/m 0,0 km/h (0 Bft) 100,00 %
12.09.2023 22:50 20,4 C 18,9 C 15,6 C 96 % 1012,6 hPa 0,0 l/m 0 min 0 min 0 W/m 0,0 km/h (0 Bft) 100,00 %
12.09.2023 22:52 20,4 C 18,9 C 15,6 C 96 % 1012,6 hPa 0,0 l/m 0 min 0 min 0 W/m 0,0 km/h (0 Bft) 100,00 %
12.09.2023 22:54 20,4 C 18,9 C 15,6 C 96 % 1012,6 hPa 0,0 l/m 0 min 0 min 0 W/m 0,0 km/h (0 Bft) 97,87 %
12.09.2023 22:56 20,3 C 18,9 C 15,6 C 96 % 1012,6 hPa 0,0 l/m 0 min 0 min 0 W/m 0,0 km/h (0 Bft) 100,00 %
12.09.2023 22:58 20,3 C 18,9 C 15,6 C 96 % 1012,7 hPa 0,0 l/m 0 min 0 min 0 W/m 0,0 km/h (0 Bft) 100,00 %
12.09.2023 23:00 20,3 C 18,9 C 15,6 C 96 % 1012,6 hPa 0,0 l/m 0 min 0 min 0 W/m 0,0 km/h (0 Bft) 97,87 %
12.09.2023 23:02 20,3 C 18,9 C 15,6 C 96 % 1012,7 hPa 0,0 l/m 0 min 0 min 0 W/m 0,0 km/h (0 Bft) 95,65 %
12.09.2023 23:04 20,3 C 18,9 C 15,6 C 96 % 1012,7 hPa 0,0 l/m 0 min 0 min 0 W/m 0,0 km/h (0 Bft) 93,62 %
12.09.2023 23:06 20,3 C 18,9 C 15,6 C 96 % 1012,7 hPa 0,0 l/m 0 min 0 min 0 W/m 0,0 km/h (0 Bft) 95,74 %
12.09.2023 23:08 20,4 C 18,9 C 15,6 C 96 % 1012,8 hPa 0,0 l/m 0 min 0 min 0 W/m 0,0 km/h (0 Bft) 95,74 %
12.09.2023 23:10 20,4 C 18,9 C 15,6 C 97 % 1012,8 hPa 0,0 l/m 0 min 0 min 0 W/m 0,0 km/h (0 Bft) 95,74 %
12.09.2023 23:12 20,4 C 18,9 C 15,6 C 97 % 1012,9 hPa 0,0 l/m 0 min 0 min 0 W/m 0,0 km/h (0 Bft) 95,74 %
12.09.2023 23:14 20,4 C 18,9 C 15,6 C 97 % 1012,9 hPa 0,0 l/m 0 min 0 min 0 W/m 0,0 km/h (0 Bft) 95,74 %
12.09.2023 23:16 20,4 C 19,4 C 15,6 C 97 % 1013,0 hPa 0,0 l/m 0 min 0 min 0 W/m 0,0 km/h (0 Bft) 93,48 %
12.09.2023 23:18 20,4 C 19,4 C 15,6 C 97 % 1012,9 hPa 0,0 l/m 0 min 0 min 0 W/m 0,0 km/h (0 Bft) 95,74 %
12.09.2023 23:20 20,4 C 19,4 C 15,6 C 97 % 1012,9 hPa 0,0 l/m 0 min 0 min 0 W/m 0,0 km/h (0 Bft) 93,62 %
12.09.2023 23:22 20,4 C 19,4 C 15,6 C 97 % 1012,9 hPa 0,0 l/m 0 min 0 min 0 W/m 0,0 km/h (0 Bft) 95,74 %
12.09.2023 23:24 20,4 C 19,4 C 15,6 C 97 % 1013,0 hPa 0,0 l/m 0 min 0 min 0 W/m 0,0 km/h (0 Bft) 95,74 %
12.09.2023 23:26 20,4 C 19,4 C 15,6 C 97 % 1012,9 hPa 0,0 l/m 0 min 0 min 0 W/m 0,0 km/h (0 Bft) 93,62 %
12.09.2023 23:28 20,4 C 19,4 C 15,6 C 97 % 1013,0 hPa 0,0 l/m 0 min 0 min 0 W/m 0,0 km/h (0 Bft) 95,74 %
12.09.2023 23:30 20,4 C 19,4 C 15,6 C 97 % 1012,9 hPa 0,0 l/m 0 min 0 min 0 W/m 0,0 km/h (0 Bft) 95,65 %
12.09.2023 23:32 20,4 C 19,4 C 15,6 C 97 % 1012,9 hPa 0,0 l/m 0 min 0 min 0 W/m 0,0 km/h (0 Bft) 97,87 %
12.09.2023 23:34 20,4 C 19,4 C 15,6 C 97 % 1013,0 hPa 0,0 l/m 0 min 0 min 0 W/m 0,0 km/h (0 Bft) 97,87 %
12.09.2023 23:36 20,4 C 19,4 C 15,6 C 97 % 1013,0 hPa 0,0 l/m 0 min 0 min 0 W/m 0,0 km/h (0 Bft) 98,00 %
12.09.2023 23:38 20,4 C 19,4 C 15,6 C 97 % 1013,0 hPa 0,0 l/m 0 min 0 min 0 W/m 0,0 km/h (0 Bft) 93,62 %
12.09.2023 23:40 20,4 C 19,4 C 16,1 C 97 % 1013,1 hPa 0,0 l/m 0 min 0 min 0 W/m 0,0 km/h (0 Bft) 97,87 %
12.09.2023 23:42 20,4 C 19,4 C 15,6 C 97 % 1013,1 hPa 0,0 l/m 0 min 0 min 0 W/m 0,0 km/h (0 Bft) 97,83 %
12.09.2023 23:44 20,4 C 19,4 C 16,1 C 97 % 1013,1 hPa 0,0 l/m 0 min 0 min 0 W/m 0,0 km/h (0 Bft) 97,87 %
12.09.2023 23:46 20,4 C 19,4 C 15,6 C 97 % 1013,1 hPa 0,0 l/m 0 min 0 min 0 W/m 0,0 km/h (0 Bft) 95,74 %
12.09.2023 23:48 20,4 C 19,4 C 15,6 C 97 % 1013,2 hPa 0,0 l/m 0 min 0 min 0 W/m 12,9 km/h (3 Bft) 100,00 %
12.09.2023 23:50 20,4 C 19,4 C 15,6 C 97 % 1013,2 hPa 0,0 l/m 0 min 0 min 0 W/m 6,4 km/h (2 Bft) 100,00 %
12.09.2023 23:52 20,3 C 19,4 C 15,6 C 97 % 1013,2 hPa 0,0 l/m 0 min 0 min 0 W/m 12,9 km/h (3 Bft) 100,00 %
12.09.2023 23:54 20,3 C 18,9 C 15,6 C 97 % 1013,2 hPa 0,0 l/m 0 min 0 min 0 W/m 12,9 km/h (3 Bft) 97,87 %
12.09.2023 23:56 20,2 C 18,9 C 15,6 C 97 % 1013,2 hPa 0,0 l/m 0 min 0 min 0 W/m 6,4 km/h (2 Bft) 100,00 %
12.09.2023 23:58 20,2 C 18,9 C 15,6 C 98 % 1013,2 hPa 0,0 l/m 0 min 0 min 0 W/m 6,4 km/h (2 Bft) 100,00 %
_ Min-Zeit 06:08 04:44 06:02 17:14 18:52 - - - - 00:22 19:56
Minimum _ 18,8 C 17,8 C 13,9 C 70 % 1011,8 hPa - - - - 0,0 km/h (0 Bft) 88,24 %
_ Max-Zeit 16:52 14:20 16:42 10:36 07:50 04:38 12:08 02:16 14:16 02:20 00:02
Maximum _ 26,2 C 30,0 C 21,7 C 100 % 1014,5 hPa 1,4 l/m 4 min 2 min 825 W/m 19,3 km/h
W-NW (3 Bft)
100,00 %
Durchschnitt _ 21,6 C 21,1 C 16,8 C 89 % 1013,0 hPa #15,8 l/m #5:00 h #2:16 h 297 W/m 4,4 km/h (1 Bft) 97,20 %
© 2023 W. Hausmann